PWSweather.com
Personal Weather Stations
Station Observations
KOHREFORM1
Reform, Ohio, Newark, OH 43055

Reform, OhioNewark, OH 43055

Lat: 40.1502, Lon: -82.2417

Elevation: 1043

Station Type: Davis Vantage Pro 2 Plus

randysweatheronthehill.com

High Low Average
Temperature 20.2°F-6.6°C 7.7°F-13.5°C 14.4°F-9.8°C
Dew Point 17.5°F-8.1°C 2.3°F-16.5°C 9.9°F-12.3°C
Winds 16.0 mph 25.7 kmh Calm Calm 3.0 mph WSW4.8 kmh WSW
Wind Gusts 17.0 mph27.4 kmh -- 9.0 mph14.5 kmh
Humidity 93% 79% 86%
Pressure 30.69 in1039.3 mb 29.98 in1015.2 mb -
Precipitation 0.00 in0.0 mm - -
Hour Temp Dew Point Humidity Winds Wind Gusts Pressure Precip Precip Rate Daily Precip Total
12:01 AM 20.3°F-6.5°C 17.6°F-8.0°C 93% 6.0 mph ENE9.7 kmh ENE 19.0 mph30.6 kmh 29.92 in1013.2 mb 0.00 in0.0 mm 0.00 in0.0 mm 0.50 in12.7 mm
12:03 AM 20.3°F-6.5°C 17.6°F-8.0°C 93% 11.0 mph 17.7 kmh 19.0 mph30.6 kmh 29.92 in1013.2 mb 0.00 in0.0 mm 0.00 in0.0 mm 0.50 in12.7 mm
12:05 AM 20.3°F-6.5°C 17.6°F-8.0°C 93% 6.0 mph NE9.7 kmh NE 19.0 mph30.6 kmh 29.92 in1013.2 mb 0.00 in0.0 mm 0.00 in0.0 mm 0.50 in12.7 mm
12:07 AM 20.3°F-6.5°C 17.6°F-8.0°C 93% 5.0 mph N8.0 kmh N 19.0 mph30.6 kmh 29.92 in1013.2 mb 0.00 in0.0 mm 0.00 in0.0 mm 0.50 in12.7 mm
12:09 AM 20.3°F-6.5°C 17.6°F-8.0°C 93% 15.0 mph NNE24.1 kmh NNE 19.0 mph30.6 kmh 29.93 in1013.5 mb 0.00 in0.0 mm 0.00 in0.0 mm 0.50 in12.7 mm
12:11 AM 20.2°F-6.6°C 17.5°F-8.1°C 93% 6.0 mph NE9.7 kmh NE 19.0 mph30.6 kmh 29.93 in1013.5 mb 0.00 in0.0 mm 0.00 in0.0 mm 0.50 in12.7 mm
12:13 AM 20.2°F-6.6°C 17.5°F-8.1°C 93% 13.0 mph NE20.9 kmh NE 19.0 mph30.6 kmh 29.94 in1013.9 mb 0.00 in0.0 mm 0.00 in0.0 mm 0.50 in12.7 mm
12:15 AM 20.2°F-6.6°C 17.5°F-8.1°C 93% 4.0 mph NE6.4 kmh NE 19.0 mph30.6 kmh 29.95 in1014.2 mb 0.00 in0.0 mm 0.00 in0.0 mm 0.50 in12.7 mm
12:17 AM 20.2°F-6.6°C 17.5°F-8.1°C 93% 4.0 mph NE6.4 kmh NE 19.0 mph30.6 kmh 29.95 in1014.2 mb 0.00 in0.0 mm 0.00 in0.0 mm 0.50 in12.7 mm
12:19 AM 20.2°F-6.6°C 17.5°F-8.1°C 93% 2.0 mph N3.2 kmh N 16.0 mph25.7 kmh 29.96 in1014.6 mb 0.00 in0.0 mm 0.00 in0.0 mm 0.50 in12.7 mm
12:21 AM 20.3°F-6.5°C 17.6°F-8.0°C 93% 4.0 mph N6.4 kmh N 16.0 mph25.7 kmh 29.96 in1014.6 mb 0.00 in0.0 mm 0.00 in0.0 mm 0.50 in12.7 mm
12:23 AM 20.3°F-6.5°C 17.6°F-8.0°C 93% 4.0 mph N6.4 kmh N 16.0 mph25.7 kmh 29.97 in1014.9 mb 0.00 in0.0 mm 0.00 in0.0 mm 0.50 in12.7 mm
12:25 AM 20.3°F-6.5°C 17.6°F-8.0°C 93% 5.0 mph NW8.0 kmh NW 16.0 mph25.7 kmh 29.96 in1014.6 mb 0.00 in0.0 mm 0.00 in0.0 mm 0.50 in12.7 mm
12:27 AM 20.3°F-6.5°C 17.6°F-8.0°C 93% 3.0 mph NE4.8 kmh NE 18.0 mph29.0 kmh 29.96 in1014.6 mb 0.00 in0.0 mm 0.00 in0.0 mm 0.50 in12.7 mm
12:29 AM 20.3°F-6.5°C 17.6°F-8.0°C 93% 14.0 mph NNE22.5 kmh NNE 18.0 mph29.0 kmh 29.96 in1014.6 mb 0.00 in0.0 mm 0.00 in0.0 mm 0.50 in12.7 mm
12:31 AM 20.3°F-6.5°C 17.6°F-8.0°C 93% 5.0 mph N8.0 kmh N 18.0 mph29.0 kmh 29.97 in1014.9 mb 0.00 in0.0 mm 0.00 in0.0 mm 0.50 in12.7 mm
12:33 AM 20.3°F-6.5°C 17.6°F-8.0°C 93% 6.0 mph NW9.7 kmh NW 18.0 mph29.0 kmh 29.97 in1014.9 mb 0.00 in0.0 mm 0.00 in0.0 mm 0.50 in12.7 mm
12:35 AM 20.3°F-6.5°C 17.6°F-8.0°C 93% 8.0 mph NE12.9 kmh NE 18.0 mph29.0 kmh 29.98 in1015.2 mb 0.00 in0.0 mm 0.00 in0.0 mm 0.50 in12.7 mm
12:37 AM 20.3°F-6.5°C 17.6°F-8.0°C 93% 4.0 mph NE6.4 kmh NE 18.0 mph29.0 kmh 29.98 in1015.2 mb 0.00 in0.0 mm 0.00 in0.0 mm 0.50 in12.7 mm
12:39 AM 20.3°F-6.5°C 17.6°F-8.0°C 93% 3.0 mph N4.8 kmh N 18.0 mph29.0 kmh 29.98 in1015.2 mb 0.00 in0.0 mm 0.00 in0.0 mm 0.50 in12.7 mm
12:41 AM 20.3°F-6.5°C 17.6°F-8.0°C 93% 2.0 mph N3.2 kmh N 18.0 mph29.0 kmh 29.98 in1015.2 mb 0.00 in0.0 mm 0.00 in0.0 mm 0.50 in12.7 mm
12:43 AM 20.3°F-6.5°C 17.6°F-8.0°C 93% 5.0 mph NNE8.0 kmh NNE 18.0 mph29.0 kmh 29.99 in1015.6 mb 0.00 in0.0 mm 0.00 in0.0 mm 0.50 in12.7 mm
12:45 AM 20.3°F-6.5°C 17.6°F-8.0°C 93% 2.0 mph NNW3.2 kmh NNW 18.0 mph29.0 kmh 29.99 in1015.6 mb 0.00 in0.0 mm 0.00 in0.0 mm 0.50 in12.7 mm
12:47 AM 20.3°F-6.5°C 17.6°F-8.0°C 93% 4.0 mph N6.4 kmh N 14.0 mph22.5 kmh 29.99 in1015.6 mb 0.00 in0.0 mm 0.00 in0.0 mm 0.50 in12.7 mm
12:49 AM 20.3°F-6.5°C 17.6°F-8.0°C 93% 2.0 mph NW3.2 kmh NW 14.0 mph22.5 kmh 29.99 in1015.6 mb 0.00 in0.0 mm 0.00 in0.0 mm 0.50 in12.7 mm
12:51 AM 20.3°F-6.5°C 17.6°F-8.0°C 93% 3.0 mph NNE4.8 kmh NNE 14.0 mph22.5 kmh 29.99 in1015.6 mb 0.00 in0.0 mm 0.00 in0.0 mm 0.50 in12.7 mm
12:53 AM 20.3°F-6.5°C 17.6°F-8.0°C 93% 4.0 mph NE6.4 kmh NE 14.0 mph22.5 kmh 29.99 in1015.6 mb 0.00 in0.0 mm 0.00 in0.0 mm 0.50 in12.7 mm
12:55 AM 20.3°F-6.5°C 17.6°F-8.0°C 93% 4.0 mph E6.4 kmh E 14.0 mph22.5 kmh 30.00 in1015.9 mb 0.00 in0.0 mm 0.00 in0.0 mm 0.50 in12.7 mm
12:57 AM 20.3°F-6.5°C 17.6°F-8.0°C 93% 10.0 mph N16.1 kmh N 17.0 mph27.4 kmh 29.99 in1015.6 mb 0.00 in0.0 mm 0.00 in0.0 mm 0.50 in12.7 mm
12:59 AM 20.2°F-6.6°C 17.5°F-8.1°C 93% 8.0 mph NE12.9 kmh NE 17.0 mph27.4 kmh 29.99 in1015.6 mb 0.00 in0.0 mm 0.00 in0.0 mm 0.50 in12.7 mm
01:01 AM 20.2°F-6.6°C 17.5°F-8.1°C 93% 4.0 mph NNE6.4 kmh NNE 17.0 mph27.4 kmh 29.99 in1015.6 mb 0.00 in0.0 mm 0.00 in0.0 mm 0.00 in0.0 mm
01:03 AM 20.1°F-6.6°C 17.4°F-8.1°C 93% 3.0 mph NNW4.8 kmh NNW 17.0 mph27.4 kmh 29.98 in1015.2 mb 0.00 in0.0 mm 0.00 in0.0 mm 0.00 in0.0 mm
01:05 AM 20.1°F-6.6°C 17.4°F-8.1°C 93% 15.0 mph E24.1 kmh E 17.0 mph27.4 kmh 29.98 in1015.2 mb 0.00 in0.0 mm 0.00 in0.0 mm 0.00 in0.0 mm
01:07 AM 19.9°F-6.7°C 17.2°F-8.2°C 93% 4.0 mph N6.4 kmh N 17.0 mph27.4 kmh 29.98 in1015.2 mb 0.00 in0.0 mm 0.00 in0.0 mm 0.00 in0.0 mm
01:09 AM 19.9°F-6.7°C 17.2°F-8.2°C 93% 5.0 mph N8.0 kmh N 17.0 mph27.4 kmh 29.98 in1015.2 mb 0.00 in0.0 mm 0.00 in0.0 mm 0.00 in0.0 mm
01:11 AM 19.8°F-6.8°C 17.1°F-8.3°C 93% 3.0 mph ENE4.8 kmh ENE 17.0 mph27.4 kmh 29.98 in1015.2 mb 0.00 in0.0 mm 0.00 in0.0 mm 0.00 in0.0 mm
01:13 AM 19.8°F-6.8°C 17.1°F-8.3°C 93% 8.0 mph NNE12.9 kmh NNE 17.0 mph27.4 kmh 29.98 in1015.2 mb 0.00 in0.0 mm 0.00 in0.0 mm 0.00 in0.0 mm
01:15 AM 19.8°F-6.8°C 17.1°F-8.3°C 93% 3.0 mph N4.8 kmh N 17.0 mph27.4 kmh 29.98 in1015.2 mb 0.00 in0.0 mm 0.00 in0.0 mm 0.00 in0.0 mm
01:17 AM 19.8°F-6.8°C 17.1°F-8.3°C 93% 7.0 mph N11.3 kmh N 16.0 mph25.7 kmh 29.98 in1015.2 mb 0.00 in0.0 mm 0.00 in0.0 mm 0.00 in0.0 mm
01:19 AM 19.8°F-6.8°C 17.1°F-8.3°C 93% 6.0 mph ENE9.7 kmh ENE 16.0 mph25.7 kmh 29.99 in1015.6 mb 0.00 in0.0 mm 0.00 in0.0 mm 0.00 in0.0 mm
01:21 AM 19.7°F-6.8°C 17.0°F-8.3°C 93% 4.0 mph NW6.4 kmh NW 16.0 mph25.7 kmh 29.99 in1015.6 mb 0.00 in0.0 mm 0.00 in0.0 mm 0.00 in0.0 mm
01:23 AM 19.8°F-6.8°C 17.1°F-8.3°C 93% 1.0 mph NNE1.6 kmh NNE 16.0 mph25.7 kmh 29.99 in1015.6 mb 0.00 in0.0 mm 0.00 in0.0 mm 0.00 in0.0 mm
01:25 AM 19.8°F-6.8°C 17.1°F-8.3°C 93% 3.0 mph NE4.8 kmh NE 16.0 mph25.7 kmh 30.00 in1015.9 mb 0.00 in0.0 mm 0.00 in0.0 mm 0.00 in0.0 mm
01:27 AM 19.8°F-6.8°C 17.1°F-8.3°C 93% 3.0 mph N4.8 kmh N 10.0 mph16.1 kmh 30.00 in1015.9 mb 0.00 in0.0 mm 0.00 in0.0 mm 0.00 in0.0 mm
01:29 AM 19.8°F-6.8°C 17.1°F-8.3°C 93% 2.0 mph N3.2 kmh N 10.0 mph16.1 kmh 30.00 in1015.9 mb 0.00 in0.0 mm 0.00 in0.0 mm 0.00 in0.0 mm
01:31 AM 19.8°F-6.8°C 17.1°F-8.3°C 93% 2.0 mph NNE3.2 kmh NNE 10.0 mph16.1 kmh 30.01 in1016.3 mb 0.00 in0.0 mm 0.00 in0.0 mm 0.00 in0.0 mm
01:33 AM 19.8°F-6.8°C 17.1°F-8.3°C 93% 2.0 mph N3.2 kmh N 10.0 mph16.1 kmh 30.01 in1016.3 mb 0.00 in0.0 mm 0.00 in0.0 mm 0.00 in0.0 mm
01:35 AM 19.9°F-6.7°C 17.2°F-8.2°C 93% 4.0 mph NW6.4 kmh NW 10.0 mph16.1 kmh 30.01 in1016.3 mb 0.00 in0.0 mm 0.00 in0.0 mm 0.00 in0.0 mm
01:37 AM 19.9°F-6.7°C 17.2°F-8.2°C 93% 3.0 mph NNW4.8 kmh NNW 8.0 mph12.9 kmh 30.01 in1016.3 mb 0.00 in0.0 mm 0.00 in0.0 mm 0.00 in0.0 mm
01:39 AM 19.9°F-6.7°C 17.2°F-8.2°C 93% 2.0 mph N3.2 kmh N 8.0 mph12.9 kmh 30.01 in1016.3 mb 0.00 in0.0 mm 0.00 in0.0 mm 0.00 in0.0 mm
01:41 AM 19.9°F-6.7°C 17.2°F-8.2°C 93% 3.0 mph NNW4.8 kmh NNW 8.0 mph12.9 kmh 30.01 in1016.3 mb 0.00 in0.0 mm 0.00 in0.0 mm 0.00 in0.0 mm
01:43 AM 19.9°F-6.7°C 17.2°F-8.2°C 93% 13.0 mph NW20.9 kmh NW 13.0 mph20.9 kmh 30.01 in1016.3 mb 0.00 in0.0 mm 0.00 in0.0 mm 0.00 in0.0 mm
01:45 AM 19.9°F-6.7°C 17.2°F-8.2°C 93% 5.0 mph N8.0 kmh N 13.0 mph20.9 kmh 30.01 in1016.3 mb 0.00 in0.0 mm 0.00 in0.0 mm 0.00 in0.0 mm
01:47 AM 19.8°F-6.8°C 17.1°F-8.3°C 93% 4.0 mph NNW6.4 kmh NNW 13.0 mph20.9 kmh 30.01 in1016.3 mb 0.00 in0.0 mm 0.00 in0.0 mm 0.00 in0.0 mm
01:49 AM 19.8°F-6.8°C 17.1°F-8.3°C 93% 8.0 mph NNE12.9 kmh NNE 13.0 mph20.9 kmh 30.01 in1016.3 mb 0.00 in0.0 mm 0.00 in0.0 mm 0.00 in0.0 mm
01:51 AM 19.8°F-6.8°C 17.1°F-8.3°C 93% 5.0 mph NE8.0 kmh NE 13.0 mph20.9 kmh 30.02 in1016.6 mb 0.00 in0.0 mm 0.00 in0.0 mm 0.00 in0.0 mm
01:53 AM 19.7°F-6.8°C 17.0°F-8.3°C 93% 6.0 mph NE9.7 kmh NE 13.0 mph20.9 kmh 30.02 in1016.6 mb 0.00 in0.0 mm 0.00 in0.0 mm 0.00 in0.0 mm
01:55 AM 19.7°F-6.8°C 17.0°F-8.3°C 93% 2.0 mph NW3.2 kmh NW 13.0 mph20.9 kmh 30.02 in1016.6 mb 0.00 in0.0 mm 0.00 in0.0 mm 0.00 in0.0 mm
01:57 AM 19.7°F-6.8°C 17.0°F-8.3°C 93% 4.0 mph NW6.4 kmh NW 13.0 mph20.9 kmh 30.02 in1016.6 mb 0.00 in0.0 mm 0.00 in0.0 mm 0.00 in0.0 mm
01:59 AM 19.7°F-6.8°C 17.0°F-8.3°C 93% 4.0 mph NNW6.4 kmh NNW 13.0 mph20.9 kmh 30.02 in1016.6 mb 0.00 in0.0 mm 0.00 in0.0 mm 0.00 in0.0 mm
02:01 AM 19.7°F-6.8°C 17.0°F-8.3°C 93% 4.0 mph NNW6.4 kmh NNW 13.0 mph20.9 kmh 30.02 in1016.6 mb 0.00 in0.0 mm 0.00 in0.0 mm 0.00 in0.0 mm
02:03 AM 19.7°F-6.8°C 17.0°F-8.3°C 93% 6.0 mph NNE9.7 kmh NNE 13.0 mph20.9 kmh 30.01 in1016.3 mb 0.00 in0.0 mm 0.00 in0.0 mm 0.00 in0.0 mm
02:05 AM 19.7°F-6.8°C 17.0°F-8.3°C 93% 5.0 mph NNW8.0 kmh NNW 12.0 mph19.3 kmh 30.02 in1016.6 mb 0.00 in0.0 mm 0.00 in0.0 mm 0.00 in0.0 mm
02:07 AM 19.7°F-6.8°C 17.0°F-8.3°C 93% 3.0 mph NNE4.8 kmh NNE 12.0 mph19.3 kmh 30.02 in1016.6 mb 0.00 in0.0 mm 0.00 in0.0 mm 0.00 in0.0 mm
02:09 AM 19.6°F-6.9°C 16.9°F-8.4°C 93% 3.0 mph NNE4.8 kmh NNE 12.0 mph19.3 kmh 30.02 in1016.6 mb 0.00 in0.0 mm 0.00 in0.0 mm 0.00 in0.0 mm
02:11 AM 19.6°F-6.9°C 16.9°F-8.4°C 93% 4.0 mph N6.4 kmh N 12.0 mph19.3 kmh 30.02 in1016.6 mb 0.00 in0.0 mm 0.00 in0.0 mm 0.00 in0.0 mm
02:13 AM 19.6°F-6.9°C 16.9°F-8.4°C 93% 8.0 mph N12.9 kmh N 12.0 mph19.3 kmh 30.03 in1016.9 mb 0.00 in0.0 mm 0.00 in0.0 mm 0.00 in0.0 mm
02:15 AM 19.5°F-6.9°C 16.8°F-8.4°C 93% 5.0 mph N8.0 kmh N 13.0 mph20.9 kmh 30.02 in1016.6 mb 0.00 in0.0 mm 0.00 in0.0 mm 0.00 in0.0 mm
02:17 AM 19.4°F-7.0°C 16.7°F-8.5°C 93% 12.0 mph NE19.3 kmh NE 14.0 mph22.5 kmh 30.03 in1016.9 mb 0.00 in0.0 mm 0.00 in0.0 mm 0.00 in0.0 mm
02:19 AM 19.4°F-7.0°C 16.7°F-8.5°C 93% 11.0 mph NNW17.7 kmh NNW 16.0 mph25.7 kmh 30.03 in1016.9 mb 0.00 in0.0 mm 0.00 in0.0 mm 0.00 in0.0 mm
02:21 AM 19.4°F-7.0°C 16.7°F-8.5°C 93% 10.0 mph NE16.1 kmh NE 17.0 mph27.4 kmh 30.03 in1016.9 mb 0.00 in0.0 mm 0.00 in0.0 mm 0.00 in0.0 mm
02:23 AM 19.3°F-7.1°C 16.6°F-8.6°C 93% 8.0 mph N12.9 kmh N 17.0 mph27.4 kmh 30.03 in1016.9 mb 0.00 in0.0 mm 0.00 in0.0 mm 0.00 in0.0 mm
02:25 AM 19.3°F-7.1°C 16.6°F-8.6°C 93% 9.0 mph NE14.5 kmh NE 17.0 mph27.4 kmh 30.03 in1016.9 mb 0.00 in0.0 mm 0.00 in0.0 mm 0.00 in0.0 mm
02:27 AM 19.2°F-7.1°C 16.5°F-8.6°C 93% 6.0 mph NE9.7 kmh NE 17.0 mph27.4 kmh 30.03 in1016.9 mb 0.00 in0.0 mm 0.00 in0.0 mm 0.00 in0.0 mm
02:29 AM 19.1°F-7.2°C 16.4°F-8.7°C 93% 4.0 mph N6.4 kmh N 17.0 mph27.4 kmh 30.03 in1016.9 mb 0.00 in0.0 mm 0.00 in0.0 mm 0.00 in0.0 mm
02:31 AM 19.1°F-7.2°C 16.4°F-8.7°C 93% 11.0 mph NE17.7 kmh NE 17.0 mph27.4 kmh 30.03 in1016.9 mb 0.00 in0.0 mm 0.00 in0.0 mm 0.00 in0.0 mm
02:33 AM 19.1°F-7.2°C 16.4°F-8.7°C 93% 9.0 mph NNE14.5 kmh NNE 17.0 mph27.4 kmh 30.03 in1016.9 mb 0.00 in0.0 mm 0.00 in0.0 mm 0.00 in0.0 mm
02:35 AM 19.1°F-7.2°C 16.4°F-8.7°C 93% 5.0 mph N8.0 kmh N 17.0 mph27.4 kmh 30.03 in1016.9 mb 0.00 in0.0 mm 0.00 in0.0 mm 0.00 in0.0 mm
02:37 AM 19.0°F-7.2°C 16.3°F-8.7°C 93% 5.0 mph NNE8.0 kmh NNE 17.0 mph27.4 kmh 30.03 in1016.9 mb 0.00 in0.0 mm 0.00 in0.0 mm 0.00 in0.0 mm
02:39 AM 18.9°F-7.3°C 16.2°F-8.8°C 93% 9.0 mph E14.5 kmh E 17.0 mph27.4 kmh 30.04 in1017.3 mb 0.00 in0.0 mm 0.00 in0.0 mm 0.00 in0.0 mm
02:41 AM 18.9°F-7.3°C 15.9°F-8.9°C 92% 6.0 mph NE9.7 kmh NE 17.0 mph27.4 kmh 30.04 in1017.3 mb 0.00 in0.0 mm 0.00 in0.0 mm 0.00 in0.0 mm
02:43 AM 18.8°F-7.3°C 15.8°F-9.0°C 92% 4.0 mph NE6.4 kmh NE 17.0 mph27.4 kmh 30.04 in1017.3 mb 0.00 in0.0 mm 0.00 in0.0 mm 0.00 in0.0 mm
02:45 AM 18.8°F-7.3°C 15.8°F-9.0°C 92% 4.0 mph NE6.4 kmh NE 17.0 mph27.4 kmh 30.04 in1017.3 mb 0.00 in0.0 mm 0.00 in0.0 mm 0.00 in0.0 mm
02:47 AM 18.8°F-7.3°C 15.8°F-9.0°C 92% 6.0 mph NE9.7 kmh NE 17.0 mph27.4 kmh 30.04 in1017.3 mb 0.00 in0.0 mm 0.00 in0.0 mm 0.00 in0.0 mm
02:49 AM 18.8°F-7.3°C 16.1°F-8.8°C 93% 6.0 mph ENE9.7 kmh ENE 17.0 mph27.4 kmh 30.05 in1017.6 mb 0.00 in0.0 mm 0.00 in0.0 mm 0.00 in0.0 mm
02:51 AM 18.8°F-7.3°C 16.1°F-8.8°C 93% 5.0 mph ENE8.0 kmh ENE 11.0 mph17.7 kmh 30.05 in1017.6 mb 0.00 in0.0 mm 0.00 in0.0 mm 0.00 in0.0 mm
02:53 AM 18.8°F-7.3°C 16.1°F-8.8°C 93% 6.0 mph N9.7 kmh N 11.0 mph17.7 kmh 30.05 in1017.6 mb 0.00 in0.0 mm 0.00 in0.0 mm 0.00 in0.0 mm
02:55 AM 18.8°F-7.3°C 16.1°F-8.8°C 93% 12.0 mph ENE19.3 kmh ENE 12.0 mph19.3 kmh 30.05 in1017.6 mb 0.00 in0.0 mm 0.00 in0.0 mm 0.00 in0.0 mm
02:57 AM 18.8°F-7.3°C 16.1°F-8.8°C 93% 6.0 mph NE9.7 kmh NE 13.0 mph20.9 kmh 30.06 in1017.9 mb 0.00 in0.0 mm 0.00 in0.0 mm 0.00 in0.0 mm
02:59 AM 18.8°F-7.3°C 16.1°F-8.8°C 93% 9.0 mph NE14.5 kmh NE 13.0 mph20.9 kmh 30.06 in1017.9 mb 0.00 in0.0 mm 0.00 in0.0 mm 0.00 in0.0 mm
03:01 AM 18.7°F-7.4°C 16.0°F-8.9°C 93% 9.0 mph NE14.5 kmh NE 13.0 mph20.9 kmh 30.06 in1017.9 mb 0.00 in0.0 mm 0.00 in0.0 mm 0.00 in0.0 mm
03:03 AM 18.7°F-7.4°C 16.0°F-8.9°C 93% 4.0 mph NE6.4 kmh NE 13.0 mph20.9 kmh 30.06 in1017.9 mb 0.00 in0.0 mm 0.00 in0.0 mm 0.00 in0.0 mm
03:05 AM 18.7°F-7.4°C 16.0°F-8.9°C 93% 6.0 mph NNE9.7 kmh NNE 13.0 mph20.9 kmh 30.06 in1017.9 mb 0.00 in0.0 mm 0.00 in0.0 mm 0.00 in0.0 mm
03:07 AM 18.7°F-7.4°C 16.0°F-8.9°C 93% 2.0 mph N3.2 kmh N 13.0 mph20.9 kmh 30.06 in1017.9 mb 0.00 in0.0 mm 0.00 in0.0 mm 0.00 in0.0 mm
03:09 AM 18.7°F-7.4°C 16.0°F-8.9°C 93% 4.0 mph NE6.4 kmh NE 13.0 mph20.9 kmh 30.06 in1017.9 mb 0.00 in0.0 mm 0.00 in0.0 mm 0.00 in0.0 mm
03:11 AM 18.7°F-7.4°C 16.0°F-8.9°C 93% 6.0 mph N9.7 kmh N 13.0 mph20.9 kmh 30.06 in1017.9 mb 0.00 in0.0 mm 0.00 in0.0 mm 0.00 in0.0 mm
03:13 AM 18.7°F-7.4°C 16.0°F-8.9°C 93% 2.0 mph NNE3.2 kmh NNE 13.0 mph20.9 kmh 30.06 in1017.9 mb 0.00 in0.0 mm 0.00 in0.0 mm 0.00 in0.0 mm
03:15 AM 18.8°F-7.3°C 16.1°F-8.8°C 93% 4.0 mph NE6.4 kmh NE 13.0 mph20.9 kmh 30.06 in1017.9 mb 0.00 in0.0 mm 0.00 in0.0 mm 0.00 in0.0 mm
03:17 AM 18.8°F-7.3°C 16.1°F-8.8°C 93% 2.0 mph NNE3.2 kmh NNE 12.0 mph19.3 kmh 30.06 in1017.9 mb 0.00 in0.0 mm 0.00 in0.0 mm 0.00 in0.0 mm
03:19 AM 18.8°F-7.3°C 16.1°F-8.8°C 93% 3.0 mph NNE4.8 kmh NNE 12.0 mph19.3 kmh 30.06 in1017.9 mb 0.00 in0.0 mm 0.00 in0.0 mm 0.00 in0.0 mm
03:21 AM 18.8°F-7.3°C 16.1°F-8.8°C 93% 1.0 mph NNW1.6 kmh NNW 12.0 mph19.3 kmh 30.06 in1017.9 mb 0.00 in0.0 mm 0.00 in0.0 mm 0.00 in0.0 mm
03:23 AM 18.8°F-7.3°C 16.1°F-8.8°C 93% 4.0 mph NW6.4 kmh NW 12.0 mph19.3 kmh 30.07 in1018.3 mb 0.00 in0.0 mm 0.00 in0.0 mm 0.00 in0.0 mm
03:25 AM 18.8°F-7.3°C 16.1°F-8.8°C 93% 3.0 mph NNW4.8 kmh NNW 12.0 mph19.3 kmh 30.07 in1018.3 mb 0.00 in0.0 mm 0.00 in0.0 mm 0.00 in0.0 mm
03:27 AM 18.8°F-7.3°C 16.1°F-8.8°C 93% 2.0 mph N3.2 kmh N 8.0 mph12.9 kmh 30.07 in1018.3 mb 0.00 in0.0 mm 0.00 in0.0 mm 0.00 in0.0 mm
03:29 AM 18.8°F-7.3°C 16.1°F-8.8°C 93% 4.0 mph NW6.4 kmh NW 8.0 mph12.9 kmh 30.07 in1018.3 mb 0.00 in0.0 mm 0.00 in0.0 mm 0.00 in0.0 mm
03:31 AM 18.9°F-7.3°C 16.2°F-8.8°C 93% 1.0 mph N1.6 kmh N 8.0 mph12.9 kmh 30.07 in1018.3 mb 0.00 in0.0 mm 0.00 in0.0 mm 0.00 in0.0 mm
03:33 AM 18.8°F-7.3°C 16.1°F-8.8°C 93% 6.0 mph NNE9.7 kmh NNE 9.0 mph14.5 kmh 30.07 in1018.3 mb 0.00 in0.0 mm 0.00 in0.0 mm 0.00 in0.0 mm
03:35 AM 18.8°F-7.3°C 16.1°F-8.8°C 93% 4.0 mph NW6.4 kmh NW 15.0 mph24.1 kmh 30.07 in1018.3 mb 0.00 in0.0 mm 0.00 in0.0 mm 0.00 in0.0 mm
03:37 AM 18.7°F-7.4°C 16.0°F-8.9°C 93% 3.0 mph NW4.8 kmh NW 15.0 mph24.1 kmh 30.07 in1018.3 mb 0.00 in0.0 mm 0.00 in0.0 mm 0.00 in0.0 mm
03:39 AM 18.6°F-7.4°C 15.6°F-9.1°C 92% 5.0 mph NNE8.0 kmh NNE 15.0 mph24.1 kmh 30.07 in1018.3 mb 0.00 in0.0 mm 0.00 in0.0 mm 0.00 in0.0 mm
03:41 AM 18.6°F-7.4°C 15.9°F-8.9°C 93% 5.0 mph NW8.0 kmh NW 15.0 mph24.1 kmh 30.08 in1018.6 mb 0.00 in0.0 mm 0.00 in0.0 mm 0.00 in0.0 mm
03:43 AM 18.5°F-7.5°C 15.8°F-9.0°C 93% 5.0 mph WNW8.0 kmh WNW 15.0 mph24.1 kmh 30.08 in1018.6 mb 0.00 in0.0 mm 0.00 in0.0 mm 0.00 in0.0 mm
03:45 AM 18.3°F-7.6°C 15.4°F-9.2°C 92% 6.0 mph NW9.7 kmh NW 15.0 mph24.1 kmh 30.08 in1018.6 mb 0.00 in0.0 mm 0.00 in0.0 mm 0.00 in0.0 mm
03:47 AM 18.0°F-7.8°C 15.1°F-9.4°C 92% 5.0 mph N8.0 kmh N 15.0 mph24.1 kmh 30.08 in1018.6 mb 0.00 in0.0 mm 0.00 in0.0 mm 0.00 in0.0 mm
03:49 AM 17.9°F-7.8°C 15.0°F-9.4°C 92% 9.0 mph N14.5 kmh N 15.0 mph24.1 kmh 30.08 in1018.6 mb 0.00 in0.0 mm 0.00 in0.0 mm 0.00 in0.0 mm
03:51 AM 17.7°F-7.9°C 14.8°F-9.6°C 92% 4.0 mph NNW6.4 kmh NNW 15.0 mph24.1 kmh 30.08 in1018.6 mb 0.00 in0.0 mm 0.00 in0.0 mm 0.00 in0.0 mm
03:53 AM 17.5°F-8.1°C 14.6°F-9.7°C 92% 9.0 mph NW14.5 kmh NW 15.0 mph24.1 kmh 30.09 in1019.0 mb 0.00 in0.0 mm 0.00 in0.0 mm 0.00 in0.0 mm
03:55 AM 17.4°F-8.1°C 14.5°F-9.7°C 92% 9.0 mph NW14.5 kmh NW 13.0 mph20.9 kmh 30.09 in1019.0 mb 0.00 in0.0 mm 0.00 in0.0 mm 0.00 in0.0 mm
03:57 AM 17.2°F-8.2°C 14.3°F-9.8°C 92% 8.0 mph NW12.9 kmh NW 13.0 mph20.9 kmh 30.09 in1019.0 mb 0.00 in0.0 mm 0.00 in0.0 mm 0.00 in0.0 mm
03:59 AM 17.1°F-8.3°C 14.2°F-9.9°C 92% 8.0 mph E12.9 kmh E 15.0 mph24.1 kmh 30.09 in1019.0 mb 0.00 in0.0 mm 0.00 in0.0 mm 0.00 in0.0 mm
04:01 AM 17.0°F-8.3°C 14.1°F-9.9°C 92% 5.0 mph NNW8.0 kmh NNW 15.0 mph24.1 kmh 30.09 in1019.0 mb 0.00 in0.0 mm 0.00 in0.0 mm 0.00 in0.0 mm
04:03 AM 17.0°F-8.3°C 14.1°F-9.9°C 92% 4.0 mph 6.4 kmh 15.0 mph24.1 kmh 30.09 in1019.0 mb 0.00 in0.0 mm 0.00 in0.0 mm 0.00 in0.0 mm
04:05 AM 17.0°F-8.3°C 14.1°F-9.9°C 92% 4.0 mph NNE6.4 kmh NNE 15.0 mph24.1 kmh 30.09 in1019.0 mb 0.00 in0.0 mm 0.00 in0.0 mm 0.00 in0.0 mm
04:07 AM 16.9°F-8.4°C 14.0°F-10.0°C 92% 4.0 mph N6.4 kmh N 15.0 mph24.1 kmh 30.09 in1019.0 mb 0.00 in0.0 mm 0.00 in0.0 mm 0.00 in0.0 mm
04:09 AM 16.9°F-8.4°C 14.0°F-10.0°C 92% 5.0 mph N8.0 kmh N 15.0 mph24.1 kmh 30.09 in1019.0 mb 0.00 in0.0 mm 0.00 in0.0 mm 0.00 in0.0 mm
04:11 AM 16.8°F-8.4°C 13.9°F-10.1°C 92% 6.0 mph NW9.7 kmh NW 15.0 mph24.1 kmh 30.10 in1019.3 mb 0.00 in0.0 mm 0.00 in0.0 mm 0.00 in0.0 mm
04:13 AM 16.8°F-8.4°C 13.9°F-10.1°C 92% 5.0 mph N8.0 kmh N 15.0 mph24.1 kmh 30.09 in1019.0 mb 0.00 in0.0 mm 0.00 in0.0 mm 0.00 in0.0 mm
04:15 AM 16.7°F-8.5°C 13.8°F-10.1°C 92% 4.0 mph N6.4 kmh N 15.0 mph24.1 kmh 30.09 in1019.0 mb 0.00 in0.0 mm 0.00 in0.0 mm 0.00 in0.0 mm
04:17 AM 16.7°F-8.5°C 13.8°F-10.1°C 92% 5.0 mph NW8.0 kmh NW 15.0 mph24.1 kmh 30.09 in1019.0 mb 0.00 in0.0 mm 0.00 in0.0 mm 0.00 in0.0 mm
04:19 AM 16.6°F-8.6°C 13.7°F-10.2°C 92% 3.0 mph NW4.8 kmh NW 15.0 mph24.1 kmh 30.10 in1019.3 mb 0.00 in0.0 mm 0.00 in0.0 mm 0.00 in0.0 mm
04:21 AM 16.6°F-8.6°C 13.7°F-10.2°C 92% 5.0 mph NNW8.0 kmh NNW 15.0 mph24.1 kmh 30.10 in1019.3 mb 0.00 in0.0 mm 0.00 in0.0 mm 0.00 in0.0 mm
04:23 AM 16.6°F-8.6°C 13.7°F-10.2°C 92% 5.0 mph NW8.0 kmh NW 15.0 mph24.1 kmh 30.10 in1019.3 mb 0.00 in0.0 mm 0.00 in0.0 mm 0.00 in0.0 mm
04:25 AM 16.5°F-8.6°C 13.6°F-10.2°C 92% 4.0 mph NW6.4 kmh NW 15.0 mph24.1 kmh 30.10 in1019.3 mb 0.00 in0.0 mm 0.00 in0.0 mm 0.00 in0.0 mm
04:27 AM 16.4°F-8.7°C 13.5°F-10.3°C 92% 4.0 mph WNW6.4 kmh WNW 15.0 mph24.1 kmh 30.10 in1019.3 mb 0.00 in0.0 mm 0.00 in0.0 mm 0.00 in0.0 mm
04:29 AM 16.3°F-8.7°C 13.4°F-10.3°C 92% 12.0 mph NE19.3 kmh NE 12.0 mph19.3 kmh 30.10 in1019.3 mb 0.00 in0.0 mm 0.00 in0.0 mm 0.00 in0.0 mm
04:31 AM 16.3°F-8.7°C 13.4°F-10.3°C 92% 8.0 mph N12.9 kmh N 12.0 mph19.3 kmh 30.10 in1019.3 mb 0.00 in0.0 mm 0.00 in0.0 mm 0.00 in0.0 mm
04:33 AM 16.2°F-8.8°C 13.3°F-10.4°C 92% 7.0 mph N11.3 kmh N 12.0 mph19.3 kmh 30.11 in1019.6 mb 0.00 in0.0 mm 0.00 in0.0 mm 0.00 in0.0 mm
04:35 AM 16.2°F-8.8°C 13.3°F-10.4°C 92% 5.0 mph NE8.0 kmh NE 12.0 mph19.3 kmh 30.11 in1019.6 mb 0.00 in0.0 mm 0.00 in0.0 mm 0.00 in0.0 mm
04:37 AM 16.1°F-8.8°C 13.2°F-10.4°C 92% 9.0 mph N14.5 kmh N 16.0 mph25.7 kmh 30.11 in1019.6 mb 0.00 in0.0 mm 0.00 in0.0 mm 0.00 in0.0 mm
04:39 AM 16.1°F-8.8°C 12.9°F-10.6°C 91% 7.0 mph NE11.3 kmh NE 16.0 mph25.7 kmh 30.11 in1019.6 mb 0.00 in0.0 mm 0.00 in0.0 mm 0.00 in0.0 mm
04:41 AM 16.1°F-8.8°C 12.9°F-10.6°C 91% 4.0 mph NNW6.4 kmh NNW 16.0 mph25.7 kmh 30.11 in1019.6 mb 0.00 in0.0 mm 0.00 in0.0 mm 0.00 in0.0 mm
04:43 AM 16.0°F-8.9°C 12.8°F-10.7°C 91% 5.0 mph NNW8.0 kmh NNW 16.0 mph25.7 kmh 30.11 in1019.6 mb 0.00 in0.0 mm 0.00 in0.0 mm 0.00 in0.0 mm
04:45 AM 16.0°F-8.9°C 13.1°F-10.5°C 92% 5.0 mph N8.0 kmh N 16.0 mph25.7 kmh 30.11 in1019.6 mb 0.00 in0.0 mm 0.00 in0.0 mm 0.00 in0.0 mm
04:47 AM 15.9°F-8.9°C 13.0°F-10.6°C 92% 8.0 mph NNW12.9 kmh NNW 16.0 mph25.7 kmh 30.11 in1019.6 mb 0.00 in0.0 mm 0.00 in0.0 mm 0.00 in0.0 mm
04:49 AM 15.9°F-8.9°C 13.0°F-10.6°C 92% 4.0 mph NNE6.4 kmh NNE 16.0 mph25.7 kmh 30.11 in1019.6 mb 0.00 in0.0 mm 0.00 in0.0 mm 0.00 in0.0 mm
04:51 AM 15.9°F-8.9°C 13.0°F-10.6°C 92% 5.0 mph NE8.0 kmh NE 16.0 mph25.7 kmh 30.11 in1019.6 mb 0.00 in0.0 mm 0.00 in0.0 mm 0.00 in0.0 mm
04:53 AM 15.9°F-8.9°C 12.7°F-10.7°C 91% 16.0 mph N25.7 kmh N 16.0 mph25.7 kmh 30.11 in1019.6 mb 0.00 in0.0 mm 0.00 in0.0 mm 0.00 in0.0 mm
04:55 AM 15.9°F-8.9°C 12.7°F-10.7°C 91% 7.0 mph N11.3 kmh N 17.0 mph27.4 kmh 30.12 in1020.0 mb 0.00 in0.0 mm 0.00 in0.0 mm 0.00 in0.0 mm
04:57 AM 15.8°F-9.0°C 12.6°F-10.8°C 91% 7.0 mph NNE11.3 kmh NNE 17.0 mph27.4 kmh 30.12 in1020.0 mb 0.00 in0.0 mm 0.00 in0.0 mm 0.00 in0.0 mm
04:59 AM 15.8°F-9.0°C 12.6°F-10.8°C 91% 8.0 mph NNW12.9 kmh NNW 17.0 mph27.4 kmh 30.12 in1020.0 mb 0.00 in0.0 mm 0.00 in0.0 mm 0.00 in0.0 mm
05:01 AM 15.8°F-9.0°C 12.6°F-10.8°C 91% 4.0 mph NW6.4 kmh NW 17.0 mph27.4 kmh 30.12 in1020.0 mb 0.00 in0.0 mm 0.00 in0.0 mm 0.00 in0.0 mm
05:03 AM 15.8°F-9.0°C 12.6°F-10.8°C 91% 8.0 mph NNE12.9 kmh NNE 17.0 mph27.4 kmh 30.12 in1020.0 mb 0.00 in0.0 mm 0.00 in0.0 mm 0.00 in0.0 mm
05:05 AM 15.8°F-9.0°C 12.6°F-10.8°C 91% 3.0 mph N4.8 kmh N 17.0 mph27.4 kmh 30.12 in1020.0 mb 0.00 in0.0 mm 0.00 in0.0 mm 0.00 in0.0 mm
05:07 AM 15.8°F-9.0°C 12.6°F-10.8°C 91% 4.0 mph NW6.4 kmh NW 17.0 mph27.4 kmh 30.12 in1020.0 mb 0.00 in0.0 mm 0.00 in0.0 mm 0.00 in0.0 mm
05:09 AM 15.8°F-9.0°C 12.6°F-10.8°C 91% 6.0 mph N9.7 kmh N 17.0 mph27.4 kmh 30.13 in1020.3 mb 0.00 in0.0 mm 0.00 in0.0 mm 0.00 in0.0 mm
05:11 AM 15.8°F-9.0°C 12.6°F-10.8°C 91% 9.0 mph NW14.5 kmh NW 17.0 mph27.4 kmh 30.13 in1020.3 mb 0.00 in0.0 mm 0.00 in0.0 mm 0.00 in0.0 mm
05:13 AM 15.8°F-9.0°C 12.6°F-10.8°C 91% 5.0 mph WNW8.0 kmh WNW 17.0 mph27.4 kmh 30.13 in1020.3 mb 0.00 in0.0 mm 0.00 in0.0 mm 0.00 in0.0 mm
05:15 AM 15.8°F-9.0°C 12.6°F-10.8°C 91% 5.0 mph NW8.0 kmh NW 13.0 mph20.9 kmh 30.14 in1020.7 mb 0.00 in0.0 mm 0.00 in0.0 mm 0.00 in0.0 mm
05:17 AM 15.8°F-9.0°C 12.6°F-10.8°C 91% 3.0 mph NNW4.8 kmh NNW 13.0 mph20.9 kmh 30.14 in1020.7 mb 0.00 in0.0 mm 0.00 in0.0 mm 0.00 in0.0 mm
05:19 AM 15.8°F-9.0°C 12.6°F-10.8°C 91% 3.0 mph N4.8 kmh N 13.0 mph20.9 kmh 30.14 in1020.7 mb 0.00 in0.0 mm 0.00 in0.0 mm 0.00 in0.0 mm
05:21 AM 15.8°F-9.0°C 12.6°F-10.8°C 91% 8.0 mph NW12.9 kmh NW 13.0 mph20.9 kmh 30.14 in1020.7 mb 0.00 in0.0 mm 0.00 in0.0 mm 0.00 in0.0 mm
05:23 AM 15.8°F-9.0°C 12.6°F-10.8°C 91% 9.0 mph NNE14.5 kmh NNE 13.0 mph20.9 kmh 30.15 in1021.0 mb 0.00 in0.0 mm 0.00 in0.0 mm 0.00 in0.0 mm
05:25 AM 15.8°F-9.0°C 12.6°F-10.8°C 91% 8.0 mph N12.9 kmh N 12.0 mph19.3 kmh 30.14 in1020.7 mb 0.00 in0.0 mm 0.00 in0.0 mm 0.00 in0.0 mm
05:27 AM 15.8°F-9.0°C 12.6°F-10.8°C 91% 2.0 mph NE3.2 kmh NE 15.0 mph24.1 kmh 30.14 in1020.7 mb 0.00 in0.0 mm 0.00 in0.0 mm 0.00 in0.0 mm
05:29 AM 15.8°F-9.0°C 12.6°F-10.8°C 91% 4.0 mph N6.4 kmh N 15.0 mph24.1 kmh 30.14 in1020.7 mb 0.00 in0.0 mm 0.00 in0.0 mm 0.00 in0.0 mm
05:31 AM 15.8°F-9.0°C 12.6°F-10.8°C 91% 2.0 mph NNE3.2 kmh NNE 15.0 mph24.1 kmh 30.15 in1021.0 mb 0.00 in0.0 mm 0.00 in0.0 mm 0.00 in0.0 mm
05:33 AM 15.8°F-9.0°C 12.6°F-10.8°C 91% 5.0 mph NE8.0 kmh NE 15.0 mph24.1 kmh 30.15 in1021.0 mb 0.00 in0.0 mm 0.00 in0.0 mm 0.00 in0.0 mm
05:35 AM 15.8°F-9.0°C 12.6°F-10.8°C 91% 5.0 mph NNW8.0 kmh NNW 15.0 mph24.1 kmh 30.15 in1021.0 mb 0.00 in0.0 mm 0.00 in0.0 mm 0.00 in0.0 mm
05:37 AM 15.8°F-9.0°C 12.6°F-10.8°C 91% 3.0 mph NNW4.8 kmh NNW 15.0 mph24.1 kmh 30.15 in1021.0 mb 0.00 in0.0 mm 0.00 in0.0 mm 0.00 in0.0 mm
05:39 AM 15.8°F-9.0°C 12.6°F-10.8°C 91% 4.0 mph NNE6.4 kmh NNE 15.0 mph24.1 kmh 30.15 in1021.0 mb 0.00 in0.0 mm 0.00 in0.0 mm 0.00 in0.0 mm
05:41 AM 15.8°F-9.0°C 12.6°F-10.8°C 91% 4.0 mph NNW6.4 kmh NNW 15.0 mph24.1 kmh 30.15 in1021.0 mb 0.00 in0.0 mm 0.00 in0.0 mm 0.00 in0.0 mm
05:43 AM 15.8°F-9.0°C 12.6°F-10.8°C 91% 6.0 mph NW9.7 kmh NW 15.0 mph24.1 kmh 30.15 in1021.0 mb 0.00 in0.0 mm 0.00 in0.0 mm 0.00 in0.0 mm
05:45 AM 15.7°F-9.1°C 12.5°F-10.8°C 91% 4.0 mph NNE6.4 kmh NNE 15.0 mph24.1 kmh 30.15 in1021.0 mb 0.00 in0.0 mm 0.00 in0.0 mm 0.00 in0.0 mm
05:47 AM 15.7°F-9.1°C 12.5°F-10.8°C 91% 3.0 mph NNE4.8 kmh NNE 11.0 mph17.7 kmh 30.15 in1021.0 mb 0.00 in0.0 mm 0.00 in0.0 mm 0.00 in0.0 mm
05:49 AM 15.7°F-9.1°C 12.5°F-10.8°C 91% 10.0 mph NNE16.1 kmh NNE 11.0 mph17.7 kmh 30.16 in1021.3 mb 0.00 in0.0 mm 0.00 in0.0 mm 0.00 in0.0 mm
05:51 AM 15.6°F-9.1°C 12.4°F-10.9°C 91% 2.0 mph NE3.2 kmh NE 11.0 mph17.7 kmh 30.16 in1021.3 mb 0.00 in0.0 mm 0.00 in0.0 mm 0.00 in0.0 mm
05:53 AM 15.6°F-9.1°C 12.4°F-10.9°C 91% 6.0 mph N9.7 kmh N 11.0 mph17.7 kmh 30.17 in1021.7 mb 0.00 in0.0 mm 0.00 in0.0 mm 0.00 in0.0 mm
05:55 AM 15.6°F-9.1°C 12.4°F-10.9°C 91% 4.0 mph NW6.4 kmh NW 11.0 mph17.7 kmh 30.17 in1021.7 mb 0.00 in0.0 mm 0.00 in0.0 mm 0.00 in0.0 mm
05:57 AM 15.5°F-9.2°C 12.3°F-10.9°C 91% 8.0 mph N12.9 kmh N 11.0 mph17.7 kmh 30.17 in1021.7 mb 0.00 in0.0 mm 0.00 in0.0 mm 0.00 in0.0 mm
05:59 AM 15.5°F-9.2°C 12.3°F-10.9°C 91% 9.0 mph NNE14.5 kmh NNE 12.0 mph19.3 kmh 30.17 in1021.7 mb 0.00 in0.0 mm 0.00 in0.0 mm 0.00 in0.0 mm
06:01 AM 15.5°F-9.2°C 12.3°F-10.9°C 91% 3.0 mph NW4.8 kmh NW 12.0 mph19.3 kmh 30.17 in1021.7 mb 0.00 in0.0 mm 0.00 in0.0 mm 0.00 in0.0 mm
06:03 AM 15.5°F-9.2°C 12.3°F-10.9°C 91% 9.0 mph N14.5 kmh N 12.0 mph19.3 kmh 30.17 in1021.7 mb 0.00 in0.0 mm 0.00 in0.0 mm 0.00 in0.0 mm
06:05 AM 15.5°F-9.2°C 12.3°F-10.9°C 91% 9.0 mph NE14.5 kmh NE 12.0 mph19.3 kmh 30.17 in1021.7 mb 0.00 in0.0 mm 0.00 in0.0 mm 0.00 in0.0 mm
06:07 AM 15.4°F-9.2°C 12.2°F-11.0°C 91% 8.0 mph WNW12.9 kmh WNW 12.0 mph19.3 kmh 30.18 in1022.0 mb 0.00 in0.0 mm 0.00 in0.0 mm 0.00 in0.0 mm
06:09 AM 15.4°F-9.2°C 12.2°F-11.0°C 91% 9.0 mph N14.5 kmh N 12.0 mph19.3 kmh 30.18 in1022.0 mb 0.00 in0.0 mm 0.00 in0.0 mm 0.00 in0.0 mm
06:11 AM 15.3°F-9.3°C 12.1°F-11.1°C 91% 5.0 mph NW8.0 kmh NW 12.0 mph19.3 kmh 30.18 in1022.0 mb 0.00 in0.0 mm 0.00 in0.0 mm 0.00 in0.0 mm
06:13 AM 15.3°F-9.3°C 11.9°F-11.2°C 90% 4.0 mph NNW6.4 kmh NNW 12.0 mph19.3 kmh 30.18 in1022.0 mb 0.00 in0.0 mm 0.00 in0.0 mm 0.00 in0.0 mm
06:15 AM 15.2°F-9.3°C 11.8°F-11.2°C 90% 8.0 mph N12.9 kmh N 13.0 mph20.9 kmh 30.18 in1022.0 mb 0.00 in0.0 mm 0.00 in0.0 mm 0.00 in0.0 mm
06:17 AM 15.2°F-9.3°C 11.8°F-11.2°C 90% 5.0 mph N8.0 kmh N 13.0 mph20.9 kmh 30.18 in1022.0 mb 0.00 in0.0 mm 0.00 in0.0 mm 0.00 in0.0 mm
06:19 AM 15.2°F-9.3°C 11.8°F-11.2°C 90% 8.0 mph NNE12.9 kmh NNE 13.0 mph20.9 kmh 30.18 in1022.0 mb 0.00 in0.0 mm 0.00 in0.0 mm 0.00 in0.0 mm
06:21 AM 15.1°F-9.4°C 11.7°F-11.3°C 90% 4.0 mph NNW6.4 kmh NNW 13.0 mph20.9 kmh 30.18 in1022.0 mb 0.00 in0.0 mm 0.00 in0.0 mm 0.00 in0.0 mm
06:23 AM 15.1°F-9.4°C 11.7°F-11.3°C 90% 4.0 mph NW6.4 kmh NW 13.0 mph20.9 kmh 30.18 in1022.0 mb 0.00 in0.0 mm 0.00 in0.0 mm 0.00 in0.0 mm
06:25 AM 15.0°F-9.4°C 11.6°F-11.3°C 90% 5.0 mph ENE8.0 kmh ENE 13.0 mph20.9 kmh 30.19 in1022.4 mb 0.00 in0.0 mm 0.00 in0.0 mm 0.00 in0.0 mm
06:27 AM 15.0°F-9.4°C 11.6°F-11.3°C 90% 4.0 mph NNW6.4 kmh NNW 13.0 mph20.9 kmh 30.19 in1022.4 mb 0.00 in0.0 mm 0.00 in0.0 mm 0.00 in0.0 mm
06:29 AM 14.9°F-9.5°C 11.5°F-11.4°C 90% 7.0 mph NW11.3 kmh NW 13.0 mph20.9 kmh 30.19 in1022.4 mb 0.00 in0.0 mm 0.00 in0.0 mm 0.00 in0.0 mm
06:31 AM 14.8°F-9.6°C 11.4°F-11.4°C 90% 4.0 mph N6.4 kmh N 13.0 mph20.9 kmh 30.19 in1022.4 mb 0.00 in0.0 mm 0.00 in0.0 mm 0.00 in0.0 mm
06:33 AM 14.8°F-9.6°C 11.4°F-11.4°C 90% 4.0 mph N6.4 kmh N 14.0 mph22.5 kmh 30.19 in1022.4 mb 0.00 in0.0 mm 0.00 in0.0 mm 0.00 in0.0 mm
06:35 AM 14.7°F-9.6°C 11.3°F-11.5°C 90% 5.0 mph NW8.0 kmh NW 14.0 mph22.5 kmh 30.19 in1022.4 mb 0.00 in0.0 mm 0.00 in0.0 mm 0.00 in0.0 mm
06:37 AM 14.6°F-9.7°C 11.2°F-11.6°C 90% 9.0 mph NNE14.5 kmh NNE 14.0 mph22.5 kmh 30.20 in1022.7 mb 0.00 in0.0 mm 0.00 in0.0 mm 0.00 in0.0 mm
06:39 AM 14.6°F-9.7°C 11.2°F-11.6°C 90% 6.0 mph NNW9.7 kmh NNW 14.0 mph22.5 kmh 30.20 in1022.7 mb 0.00 in0.0 mm 0.00 in0.0 mm 0.00 in0.0 mm
06:41 AM 14.6°F-9.7°C 11.2°F-11.6°C 90% 9.0 mph NE14.5 kmh NE 14.0 mph22.5 kmh 30.20 in1022.7 mb 0.00 in0.0 mm 0.00 in0.0 mm 0.00 in0.0 mm
06:43 AM 14.6°F-9.7°C 11.2°F-11.6°C 90% 5.0 mph NNW8.0 kmh NNW 14.0 mph22.5 kmh 30.21 in1023.0 mb 0.00 in0.0 mm 0.00 in0.0 mm 0.00 in0.0 mm
06:45 AM 14.6°F-9.7°C 11.2°F-11.6°C 90% 2.0 mph NW3.2 kmh NW 14.0 mph22.5 kmh 30.20 in1022.7 mb 0.00 in0.0 mm 0.00 in0.0 mm 0.00 in0.0 mm
06:47 AM 14.5°F-9.7°C 11.1°F-11.6°C 90% 4.0 mph 6.4 kmh 14.0 mph22.5 kmh 30.21 in1023.0 mb 0.00 in0.0 mm 0.00 in0.0 mm 0.00 in0.0 mm
06:49 AM 14.5°F-9.7°C 11.1°F-11.6°C 90% 6.0 mph NNW9.7 kmh NNW 14.0 mph22.5 kmh 30.21 in1023.0 mb 0.00 in0.0 mm 0.00 in0.0 mm 0.00 in0.0 mm
06:51 AM 14.5°F-9.7°C 11.1°F-11.6°C 90% 11.0 mph NNW17.7 kmh NNW 14.0 mph22.5 kmh 30.22 in1023.4 mb 0.00 in0.0 mm 0.00 in0.0 mm 0.00 in0.0 mm
06:53 AM 14.5°F-9.7°C 11.1°F-11.6°C 90% 2.0 mph NW3.2 kmh NW 11.0 mph17.7 kmh 30.22 in1023.4 mb 0.00 in0.0 mm 0.00 in0.0 mm 0.00 in0.0 mm
06:55 AM 14.5°F-9.7°C 11.1°F-11.6°C 90% 6.0 mph NW9.7 kmh NW 11.0 mph17.7 kmh 30.22 in1023.4 mb 0.00 in0.0 mm 0.00 in0.0 mm 0.00 in0.0 mm
06:57 AM 14.5°F-9.7°C 11.1°F-11.6°C 90% 4.0 mph N6.4 kmh N 11.0 mph17.7 kmh 30.22 in1023.4 mb 0.00 in0.0 mm 0.00 in0.0 mm 0.00 in0.0 mm
06:59 AM 14.4°F-9.8°C 11.0°F-11.7°C 90% 4.0 mph NNW6.4 kmh NNW 11.0 mph17.7 kmh 30.23 in1023.7 mb 0.00 in0.0 mm 0.00 in0.0 mm 0.00 in0.0 mm
07:01 AM 14.4°F-9.8°C 11.0°F-11.7°C 90% 3.0 mph N4.8 kmh N 11.0 mph17.7 kmh 30.23 in1023.7 mb 0.00 in0.0 mm 0.00 in0.0 mm 0.00 in0.0 mm
07:03 AM 14.4°F-9.8°C 11.0°F-11.7°C 90% 3.0 mph N4.8 kmh N 9.0 mph14.5 kmh 30.23 in1023.7 mb 0.00 in0.0 mm 0.00 in0.0 mm 0.00 in0.0 mm
07:05 AM 14.4°F-9.8°C 11.0°F-11.7°C 90% 8.0 mph NW12.9 kmh NW 9.0 mph14.5 kmh 30.23 in1023.7 mb 0.00 in0.0 mm 0.00 in0.0 mm 0.00 in0.0 mm
07:07 AM 14.3°F-9.8°C 10.9°F-11.7°C 90% 5.0 mph NNW8.0 kmh NNW 9.0 mph14.5 kmh 30.23 in1023.7 mb 0.00 in0.0 mm 0.00 in0.0 mm 0.00 in0.0 mm
07:09 AM 14.3°F-9.8°C 10.9°F-11.7°C 90% 8.0 mph NNE12.9 kmh NNE 10.0 mph16.1 kmh 30.24 in1024.0 mb 0.00 in0.0 mm 0.00 in0.0 mm 0.00 in0.0 mm
07:11 AM 14.2°F-9.9°C 10.8°F-11.8°C 90% 4.0 mph N6.4 kmh N 10.0 mph16.1 kmh 30.24 in1024.0 mb 0.00 in0.0 mm 0.00 in0.0 mm 0.00 in0.0 mm
07:13 AM 14.2°F-9.9°C 10.8°F-11.8°C 90% 6.0 mph NE9.7 kmh NE 10.0 mph16.1 kmh 30.24 in1024.0 mb 0.00 in0.0 mm 0.00 in0.0 mm 0.00 in0.0 mm
07:15 AM 14.2°F-9.9°C 10.8°F-11.8°C 90% 8.0 mph NNW12.9 kmh NNW 10.0 mph16.1 kmh 30.25 in1024.4 mb 0.00 in0.0 mm 0.00 in0.0 mm 0.00 in0.0 mm
07:17 AM 14.1°F-9.9°C 10.7°F-11.8°C 90% 4.0 mph NE6.4 kmh NE 11.0 mph17.7 kmh 30.25 in1024.4 mb 0.00 in0.0 mm 0.00 in0.0 mm 0.00 in0.0 mm
07:19 AM 14.1°F-9.9°C 10.7°F-11.8°C 90% 3.0 mph 4.8 kmh 11.0 mph17.7 kmh 30.25 in1024.4 mb 0.00 in0.0 mm 0.00 in0.0 mm 0.00 in0.0 mm
07:21 AM 14.1°F-9.9°C 10.7°F-11.8°C 90% 2.0 mph N3.2 kmh N 11.0 mph17.7 kmh 30.25 in1024.4 mb 0.00 in0.0 mm 0.00 in0.0 mm 0.00 in0.0 mm
07:23 AM 14.1°F-9.9°C 10.7°F-11.8°C 90% 8.0 mph NW12.9 kmh NW 11.0 mph17.7 kmh 30.25 in1024.4 mb 0.00 in0.0 mm 0.00 in0.0 mm 0.00 in0.0 mm
07:25 AM 14.0°F-10.0°C 10.6°F-11.9°C 90% 5.0 mph N8.0 kmh N 11.0 mph17.7 kmh 30.25 in1024.4 mb 0.00 in0.0 mm 0.00 in0.0 mm 0.00 in0.0 mm
07:27 AM 14.0°F-10.0°C 10.6°F-11.9°C 90% 6.0 mph NNW9.7 kmh NNW 14.0 mph22.5 kmh 30.25 in1024.4 mb 0.00 in0.0 mm 0.00 in0.0 mm 0.00 in0.0 mm
07:29 AM 14.0°F-10.0°C 10.6°F-11.9°C 90% 4.0 mph N6.4 kmh N 14.0 mph22.5 kmh 30.26 in1024.7 mb 0.00 in0.0 mm 0.00 in0.0 mm 0.00 in0.0 mm
07:31 AM 14.0°F-10.0°C 10.6°F-11.9°C 90% 3.0 mph N4.8 kmh N 14.0 mph22.5 kmh 30.26 in1024.7 mb 0.00 in0.0 mm 0.00 in0.0 mm 0.00 in0.0 mm
07:33 AM 13.9°F-10.1°C 10.5°F-11.9°C 90% 6.0 mph NW9.7 kmh NW 14.0 mph22.5 kmh 30.26 in1024.7 mb 0.00 in0.0 mm 0.00 in0.0 mm 0.00 in0.0 mm
07:35 AM 13.9°F-10.1°C 10.2°F-12.1°C 89% 3.0 mph N4.8 kmh N 14.0 mph22.5 kmh 30.26 in1024.7 mb 0.00 in0.0 mm 0.00 in0.0 mm 0.00 in0.0 mm
07:37 AM 13.9°F-10.1°C 10.5°F-11.9°C 90% 4.0 mph N6.4 kmh N 14.0 mph22.5 kmh 30.26 in1024.7 mb 0.00 in0.0 mm 0.00 in0.0 mm 0.00 in0.0 mm
07:39 AM 13.9°F-10.1°C 10.5°F-11.9°C 90% 4.0 mph N6.4 kmh N 14.0 mph22.5 kmh 30.26 in1024.7 mb 0.00 in0.0 mm 0.00 in0.0 mm 0.00 in0.0 mm
07:41 AM 13.8°F-10.1°C 10.4°F-12.0°C 90% 4.0 mph NNE6.4 kmh NNE 14.0 mph22.5 kmh 30.27 in1025.1 mb 0.00 in0.0 mm 0.00 in0.0 mm 0.00 in0.0 mm
07:43 AM 13.8°F-10.1°C 10.4°F-12.0°C 90% 3.0 mph 4.8 kmh 14.0 mph22.5 kmh 30.27 in1025.1 mb 0.00 in0.0 mm 0.00 in0.0 mm 0.00 in0.0 mm
07:45 AM 13.8°F-10.1°C 10.4°F-12.0°C 90% 3.0 mph NNE4.8 kmh NNE 14.0 mph22.5 kmh 30.27 in1025.1 mb 0.00 in0.0 mm 0.00 in0.0 mm 0.00 in0.0 mm
07:47 AM 13.7°F-10.2°C 10.3°F-12.1°C 90% 8.0 mph N12.9 kmh N 12.0 mph19.3 kmh 30.27 in1025.1 mb 0.00 in0.0 mm 0.00 in0.0 mm 0.00 in0.0 mm
07:49 AM 13.7°F-10.2°C 10.3°F-12.1°C 90% 4.0 mph NNW6.4 kmh NNW 12.0 mph19.3 kmh 30.27 in1025.1 mb 0.00 in0.0 mm 0.00 in0.0 mm 0.00 in0.0 mm
07:51 AM 13.7°F-10.2°C 10.3°F-12.1°C 90% 4.0 mph N6.4 kmh N 12.0 mph19.3 kmh 30.28 in1025.4 mb 0.00 in0.0 mm 0.00 in0.0 mm 0.00 in0.0 mm
07:53 AM 13.7°F-10.2°C 10.3°F-12.1°C 90% 2.0 mph N3.2 kmh N 12.0 mph19.3 kmh 30.28 in1025.4 mb 0.00 in0.0 mm 0.00 in0.0 mm 0.00 in0.0 mm
07:55 AM 13.6°F-10.2°C 10.2°F-12.1°C 90% 4.0 mph NNW6.4 kmh NNW 12.0 mph19.3 kmh 30.28 in1025.4 mb 0.00 in0.0 mm 0.00 in0.0 mm 0.00 in0.0 mm
07:57 AM 13.6°F-10.2°C 10.2°F-12.1°C 90% 3.0 mph N4.8 kmh N 12.0 mph19.3 kmh 30.28 in1025.4 mb 0.00 in0.0 mm 0.00 in0.0 mm 0.00 in0.0 mm
07:59 AM 13.6°F-10.2°C 10.2°F-12.1°C 90% 2.0 mph N3.2 kmh N 12.0 mph19.3 kmh 30.28 in1025.4 mb 0.00 in0.0 mm 0.00 in0.0 mm 0.00 in0.0 mm
08:01 AM 13.6°F-10.2°C 10.2°F-12.1°C 90% 3.0 mph N4.8 kmh N 12.0 mph19.3 kmh 30.28 in1025.4 mb 0.00 in0.0 mm 0.00 in0.0 mm 0.00 in0.0 mm
08:03 AM 13.6°F-10.2°C 10.2°F-12.1°C 90% 3.0 mph N4.8 kmh N 12.0 mph19.3 kmh 30.28 in1025.4 mb 0.00 in0.0 mm 0.00 in0.0 mm 0.00 in0.0 mm
08:05 AM 13.5°F-10.3°C 10.1°F-12.2°C 90% 3.0 mph N4.8 kmh N 12.0 mph19.3 kmh 30.29 in1025.7 mb 0.00 in0.0 mm 0.00 in0.0 mm 0.00 in0.0 mm
08:07 AM 13.5°F-10.3°C 10.1°F-12.2°C 90% 3.0 mph NW4.8 kmh NW 9.0 mph14.5 kmh 30.29 in1025.7 mb 0.00 in0.0 mm 0.00 in0.0 mm 0.00 in0.0 mm
08:09 AM 13.5°F-10.3°C 10.1°F-12.2°C 90% 4.0 mph NW6.4 kmh NW 11.0 mph17.7 kmh 30.29 in1025.7 mb 0.00 in0.0 mm 0.00 in0.0 mm 0.00 in0.0 mm
08:11 AM 13.5°F-10.3°C 10.1°F-12.2°C 90% 4.0 mph 6.4 kmh 11.0 mph17.7 kmh 30.29 in1025.7 mb 0.00 in0.0 mm 0.00 in0.0 mm 0.00 in0.0 mm
08:13 AM 13.5°F-10.3°C 10.1°F-12.2°C 90% 4.0 mph N6.4 kmh N 11.0 mph17.7 kmh 30.29 in1025.7 mb 0.00 in0.0 mm 0.00 in0.0 mm 0.00 in0.0 mm
08:15 AM 13.5°F-10.3°C 9.8°F-12.3°C 89% 4.0 mph NNE6.4 kmh NNE 11.0 mph17.7 kmh 30.30 in1026.1 mb 0.00 in0.0 mm 0.00 in0.0 mm 0.00 in0.0 mm
08:17 AM 13.5°F-10.3°C 9.8°F-12.3°C 89% 3.0 mph NNW4.8 kmh NNW 11.0 mph17.7 kmh 30.30 in1026.1 mb 0.00 in0.0 mm 0.00 in0.0 mm 0.00 in0.0 mm
08:19 AM 13.5°F-10.3°C 9.8°F-12.3°C 89% 4.0 mph N6.4 kmh N 11.0 mph17.7 kmh 30.30 in1026.1 mb 0.00 in0.0 mm 0.00 in0.0 mm 0.00 in0.0 mm
08:21 AM 13.5°F-10.3°C 10.1°F-12.2°C 90% 5.0 mph WNW8.0 kmh WNW 11.0 mph17.7 kmh 30.30 in1026.1 mb 0.00 in0.0 mm 0.00 in0.0 mm 0.00 in0.0 mm
08:23 AM 13.5°F-10.3°C 9.8°F-12.3°C 89% 6.0 mph NW9.7 kmh NW 11.0 mph17.7 kmh 30.30 in1026.1 mb 0.00 in0.0 mm 0.00 in0.0 mm 0.00 in0.0 mm
08:25 AM 13.5°F-10.3°C 9.8°F-12.3°C 89% 5.0 mph NE8.0 kmh NE 11.0 mph17.7 kmh 30.30 in1026.1 mb 0.00 in0.0 mm 0.00 in0.0 mm 0.00 in0.0 mm
08:27 AM 13.5°F-10.3°C 9.8°F-12.3°C 89% 3.0 mph 4.8 kmh 11.0 mph17.7 kmh 30.30 in1026.1 mb 0.00 in0.0 mm 0.00 in0.0 mm 0.00 in0.0 mm
08:29 AM 13.5°F-10.3°C 9.8°F-12.3°C 89% 3.0 mph NW4.8 kmh NW 10.0 mph16.1 kmh 30.30 in1026.1 mb 0.00 in0.0 mm 0.00 in0.0 mm 0.00 in0.0 mm
08:31 AM 13.4°F-10.3°C 9.7°F-12.4°C 89% 3.0 mph NNW4.8 kmh NNW 10.0 mph16.1 kmh 30.30 in1026.1 mb 0.00 in0.0 mm 0.00 in0.0 mm 0.00 in0.0 mm
08:33 AM 13.4°F-10.3°C 9.7°F-12.4°C 89% 3.0 mph NW4.8 kmh NW 10.0 mph16.1 kmh 30.30 in1026.1 mb 0.00 in0.0 mm 0.00 in0.0 mm 0.00 in0.0 mm
08:35 AM 13.5°F-10.3°C 9.8°F-12.3°C 89% 4.0 mph NE6.4 kmh NE 10.0 mph16.1 kmh 30.31 in1026.4 mb 0.00 in0.0 mm 0.00 in0.0 mm 0.00 in0.0 mm
08:37 AM 13.4°F-10.3°C 9.7°F-12.4°C 89% 12.0 mph NNW19.3 kmh NNW 12.0 mph19.3 kmh 30.31 in1026.4 mb 0.00 in0.0 mm 0.00 in0.0 mm 0.00 in0.0 mm
08:39 AM 13.4°F-10.3°C 9.7°F-12.4°C 89% 9.0 mph WNW14.5 kmh WNW 12.0 mph19.3 kmh 30.30 in1026.1 mb 0.00 in0.0 mm 0.00 in0.0 mm 0.00 in0.0 mm
08:41 AM 13.4°F-10.3°C 9.7°F-12.4°C 89% 4.0 mph NW6.4 kmh NW 12.0 mph19.3 kmh 30.31 in1026.4 mb 0.00 in0.0 mm 0.00 in0.0 mm 0.00 in0.0 mm
08:43 AM 13.4°F-10.3°C 9.7°F-12.4°C 89% 4.0 mph NE6.4 kmh NE 12.0 mph19.3 kmh 30.31 in1026.4 mb 0.00 in0.0 mm 0.00 in0.0 mm 0.00 in0.0 mm
08:45 AM 13.4°F-10.3°C 9.7°F-12.4°C 89% 3.0 mph N4.8 kmh N 12.0 mph19.3 kmh 30.31 in1026.4 mb 0.00 in0.0 mm 0.00 in0.0 mm 0.00 in0.0 mm
08:47 AM 13.4°F-10.3°C 9.7°F-12.4°C 89% 3.0 mph NW4.8 kmh NW 12.0 mph19.3 kmh 30.31 in1026.4 mb 0.00 in0.0 mm 0.00 in0.0 mm 0.00 in0.0 mm
08:49 AM 13.4°F-10.3°C 9.7°F-12.4°C 89% 3.0 mph NNW4.8 kmh NNW 12.0 mph19.3 kmh 30.32 in1026.8 mb 0.00 in0.0 mm 0.00 in0.0 mm 0.00 in0.0 mm
08:51 AM 13.4°F-10.3°C 9.7°F-12.4°C 89% 9.0 mph NNW14.5 kmh NNW 12.0 mph19.3 kmh 30.32 in1026.8 mb 0.00 in0.0 mm 0.00 in0.0 mm 0.00 in0.0 mm
08:53 AM 13.4°F-10.3°C 9.7°F-12.4°C 89% 3.0 mph N4.8 kmh N 12.0 mph19.3 kmh 30.32 in1026.8 mb 0.00 in0.0 mm 0.00 in0.0 mm 0.00 in0.0 mm
08:55 AM 13.4°F-10.3°C 9.7°F-12.4°C 89% 6.0 mph NNE9.7 kmh NNE 12.0 mph19.3 kmh 30.32 in1026.8 mb 0.00 in0.0 mm 0.00 in0.0 mm 0.00 in0.0 mm
08:57 AM 13.4°F-10.3°C 9.7°F-12.4°C 89% 5.0 mph NNW8.0 kmh NNW 10.0 mph16.1 kmh 30.32 in1026.8 mb 0.00 in0.0 mm 0.00 in0.0 mm 0.00 in0.0 mm
08:59 AM 13.3°F-10.4°C 9.7°F-12.4°C 89% 5.0 mph N8.0 kmh N 10.0 mph16.1 kmh 30.32 in1026.8 mb 0.00 in0.0 mm 0.00 in0.0 mm 0.00 in0.0 mm
09:01 AM 13.3°F-10.4°C 9.7°F-12.4°C 89% 4.0 mph NNW6.4 kmh NNW 14.0 mph22.5 kmh 30.32 in1026.8 mb 0.00 in0.0 mm 0.00 in0.0 mm 0.00 in0.0 mm
09:03 AM 13.2°F-10.4°C 9.6°F-12.4°C 89% 11.0 mph NW17.7 kmh NW 14.0 mph22.5 kmh 30.33 in1027.1 mb 0.00 in0.0 mm 0.00 in0.0 mm 0.00 in0.0 mm
09:05 AM 13.2°F-10.4°C 9.6°F-12.4°C 89% 4.0 mph NW6.4 kmh NW 14.0 mph22.5 kmh 30.33 in1027.1 mb 0.00 in0.0 mm 0.00 in0.0 mm 0.00 in0.0 mm
09:07 AM 13.2°F-10.4°C 9.6°F-12.4°C 89% 3.0 mph WSW4.8 kmh WSW 14.0 mph22.5 kmh 30.33 in1027.1 mb 0.00 in0.0 mm 0.00 in0.0 mm 0.00 in0.0 mm
09:09 AM 13.2°F-10.4°C 9.6°F-12.4°C 89% 4.0 mph NNW6.4 kmh NNW 14.0 mph22.5 kmh 30.33 in1027.1 mb 0.00 in0.0 mm 0.00 in0.0 mm 0.00 in0.0 mm
09:11 AM 13.1°F-10.5°C 9.5°F-12.5°C 89% 2.0 mph N3.2 kmh N 14.0 mph22.5 kmh 30.33 in1027.1 mb 0.00 in0.0 mm 0.00 in0.0 mm 0.00 in0.0 mm
09:13 AM 13.1°F-10.5°C 9.5°F-12.5°C 89% 3.0 mph NNW4.8 kmh NNW 14.0 mph22.5 kmh 30.33 in1027.1 mb 0.00 in0.0 mm 0.00 in0.0 mm 0.00 in0.0 mm
09:15 AM 13.1°F-10.5°C 9.5°F-12.5°C 89% 3.0 mph N4.8 kmh N 14.0 mph22.5 kmh 30.34 in1027.4 mb 0.00 in0.0 mm 0.00 in0.0 mm 0.00 in0.0 mm
09:17 AM 13.1°F-10.5°C 9.5°F-12.5°C 89% 3.0 mph NW4.8 kmh NW 14.0 mph22.5 kmh 30.34 in1027.4 mb 0.00 in0.0 mm 0.00 in0.0 mm 0.00 in0.0 mm
09:19 AM 13.1°F-10.5°C 9.5°F-12.5°C 89% 4.0 mph NW6.4 kmh NW 14.0 mph22.5 kmh 30.34 in1027.4 mb 0.00 in0.0 mm 0.00 in0.0 mm 0.00 in0.0 mm
09:21 AM 13.1°F-10.5°C 9.5°F-12.5°C 89% 3.0 mph NW4.8 kmh NW 9.0 mph14.5 kmh 30.34 in1027.4 mb 0.00 in0.0 mm 0.00 in0.0 mm 0.00 in0.0 mm
09:23 AM 13.0°F-10.6°C 9.4°F-12.6°C 89% 5.0 mph NNW8.0 kmh NNW 9.0 mph14.5 kmh 30.34 in1027.4 mb 0.00 in0.0 mm 0.00 in0.0 mm 0.00 in0.0 mm
09:25 AM 13.0°F-10.6°C 9.4°F-12.6°C 89% 3.0 mph N4.8 kmh N 9.0 mph14.5 kmh 30.34 in1027.4 mb 0.00 in0.0 mm 0.00 in0.0 mm 0.00 in0.0 mm
09:27 AM 13.0°F-10.6°C 9.4°F-12.6°C 89% 4.0 mph NW6.4 kmh NW 9.0 mph14.5 kmh 30.35 in1027.8 mb 0.00 in0.0 mm 0.00 in0.0 mm 0.00 in0.0 mm
09:29 AM 13.0°F-10.6°C 9.4°F-12.6°C 89% 4.0 mph NW6.4 kmh NW 9.0 mph14.5 kmh 30.35 in1027.8 mb 0.00 in0.0 mm 0.00 in0.0 mm 0.00 in0.0 mm
09:31 AM 13.0°F-10.6°C 9.4°F-12.6°C 89% 4.0 mph N6.4 kmh N 8.0 mph12.9 kmh 30.35 in1027.8 mb 0.00 in0.0 mm 0.00 in0.0 mm 0.00 in0.0 mm
09:33 AM 13.0°F-10.6°C 9.4°F-12.6°C 89% 7.0 mph WNW11.3 kmh WNW 8.0 mph12.9 kmh 30.35 in1027.8 mb 0.00 in0.0 mm 0.00 in0.0 mm 0.00 in0.0 mm
09:35 AM 13.0°F-10.6°C 9.4°F-12.6°C 89% 5.0 mph NNE8.0 kmh NNE 9.0 mph14.5 kmh 30.35 in1027.8 mb 0.00 in0.0 mm 0.00 in0.0 mm 0.00 in0.0 mm
09:37 AM 13.0°F-10.6°C 9.4°F-12.6°C 89% 3.0 mph WNW4.8 kmh WNW 9.0 mph14.5 kmh 30.36 in1028.1 mb 0.00 in0.0 mm 0.00 in0.0 mm 0.00 in0.0 mm
09:39 AM 13.0°F-10.6°C 9.4°F-12.6°C 89% 4.0 mph WNW6.4 kmh WNW 9.0 mph14.5 kmh 30.36 in1028.1 mb 0.00 in0.0 mm 0.00 in0.0 mm 0.00 in0.0 mm
09:41 AM 13.0°F-10.6°C 9.4°F-12.6°C 89% 4.0 mph NW6.4 kmh NW 9.0 mph14.5 kmh 30.36 in1028.1 mb 0.00 in0.0 mm 0.00 in0.0 mm 0.00 in0.0 mm
09:43 AM 13.0°F-10.6°C 9.4°F-12.6°C 89% 4.0 mph NNW6.4 kmh NNW 9.0 mph14.5 kmh 30.36 in1028.1 mb 0.00 in0.0 mm 0.00 in0.0 mm 0.00 in0.0 mm
09:45 AM 13.0°F-10.6°C 9.4°F-12.6°C 89% 3.0 mph NNW4.8 kmh NNW 9.0 mph14.5 kmh 30.36 in1028.1 mb 0.00 in0.0 mm 0.00 in0.0 mm 0.00 in0.0 mm
09:47 AM 13.0°F-10.6°C 9.4°F-12.6°C 89% 3.0 mph NNW4.8 kmh NNW 9.0 mph14.5 kmh 30.36 in1028.1 mb 0.00 in0.0 mm 0.00 in0.0 mm 0.00 in0.0 mm
09:49 AM 13.0°F-10.6°C 9.4°F-12.6°C 89% 4.0 mph NW6.4 kmh NW 9.0 mph14.5 kmh 30.36 in1028.1 mb 0.00 in0.0 mm 0.00 in0.0 mm 0.00 in0.0 mm
09:51 AM 13.0°F-10.6°C 9.4°F-12.6°C 89% 3.0 mph NW4.8 kmh NW 9.0 mph14.5 kmh 30.36 in1028.1 mb 0.00 in0.0 mm 0.00 in0.0 mm 0.00 in0.0 mm
09:53 AM 13.0°F-10.6°C 9.4°F-12.6°C 89% 4.0 mph N6.4 kmh N 9.0 mph14.5 kmh 30.36 in1028.1 mb 0.00 in0.0 mm 0.00 in0.0 mm 0.00 in0.0 mm
09:55 AM 13.1°F-10.5°C 9.5°F-12.5°C 89% 2.0 mph NNW3.2 kmh NNW 9.0 mph14.5 kmh 30.36 in1028.1 mb 0.00 in0.0 mm 0.00 in0.0 mm 0.00 in0.0 mm
09:57 AM 13.1°F-10.5°C 9.5°F-12.5°C 89% 4.0 mph NNW6.4 kmh NNW 9.0 mph14.5 kmh 30.37 in1028.4 mb 0.00 in0.0 mm 0.00 in0.0 mm 0.00 in0.0 mm
09:59 AM 13.1°F-10.5°C 9.5°F-12.5°C 89% 4.0 mph NW6.4 kmh NW 9.0 mph14.5 kmh 30.37 in1028.4 mb 0.00 in0.0 mm 0.00 in0.0 mm 0.00 in0.0 mm
10:01 AM 13.1°F-10.5°C 9.5°F-12.5°C 89% 2.0 mph NW3.2 kmh NW 9.0 mph14.5 kmh 30.36 in1028.1 mb 0.00 in0.0 mm 0.00 in0.0 mm 0.00 in0.0 mm
10:03 AM 13.1°F-10.5°C 9.5°F-12.5°C 89% 5.0 mph NW8.0 kmh NW 9.0 mph14.5 kmh 30.37 in1028.4 mb 0.00 in0.0 mm 0.00 in0.0 mm 0.00 in0.0 mm
10:05 AM 13.1°F-10.5°C 9.5°F-12.5°C 89% 5.0 mph N8.0 kmh N 9.0 mph14.5 kmh 30.37 in1028.4 mb 0.00 in0.0 mm 0.00 in0.0 mm 0.00 in0.0 mm
10:07 AM 13.1°F-10.5°C 9.5°F-12.5°C 89% 5.0 mph 8.0 kmh 9.0 mph14.5 kmh 30.37 in1028.4 mb 0.00 in0.0 mm 0.00 in0.0 mm 0.00 in0.0 mm
10:09 AM 13.1°F-10.5°C 9.5°F-12.5°C 89% 3.0 mph NW4.8 kmh NW 10.0 mph16.1 kmh 30.37 in1028.4 mb 0.00 in0.0 mm 0.00 in0.0 mm 0.00 in0.0 mm
10:11 AM 13.2°F-10.4°C 9.6°F-12.4°C 89% 5.0 mph 8.0 kmh 10.0 mph16.1 kmh 30.37 in1028.4 mb 0.00 in0.0 mm 0.00 in0.0 mm 0.00 in0.0 mm
10:13 AM 13.2°F-10.4°C 9.3°F-12.6°C 88% 5.0 mph NW8.0 kmh NW 10.0 mph16.1 kmh 30.38 in1028.8 mb 0.00 in0.0 mm 0.00 in0.0 mm 0.00 in0.0 mm
10:15 AM 13.2°F-10.4°C 9.3°F-12.6°C 88% 5.0 mph NNW8.0 kmh NNW 10.0 mph16.1 kmh 30.38 in1028.8 mb 0.00 in0.0 mm 0.00 in0.0 mm 0.00 in0.0 mm
10:17 AM 13.2°F-10.4°C 9.3°F-12.6°C 88% 3.0 mph NW4.8 kmh NW 10.0 mph16.1 kmh 30.38 in1028.8 mb 0.00 in0.0 mm 0.00 in0.0 mm 0.00 in0.0 mm
10:19 AM 13.2°F-10.4°C 9.3°F-12.6°C 88% 5.0 mph NNW8.0 kmh NNW 10.0 mph16.1 kmh 30.38 in1028.8 mb 0.00 in0.0 mm 0.00 in0.0 mm 0.00 in0.0 mm
10:21 AM 13.2°F-10.4°C 9.3°F-12.6°C 88% 4.0 mph NNW6.4 kmh NNW 10.0 mph16.1 kmh 30.38 in1028.8 mb 0.00 in0.0 mm 0.00 in0.0 mm 0.00 in0.0 mm
10:23 AM 13.3°F-10.4°C 9.4°F-12.6°C 88% 3.0 mph N4.8 kmh N 10.0 mph16.1 kmh 30.38 in1028.8 mb 0.00 in0.0 mm 0.00 in0.0 mm 0.00 in0.0 mm
10:25 AM 13.3°F-10.4°C 9.4°F-12.6°C 88% 3.0 mph NW4.8 kmh NW 10.0 mph16.1 kmh 30.38 in1028.8 mb 0.00 in0.0 mm 0.00 in0.0 mm 0.00 in0.0 mm
10:27 AM 13.3°F-10.4°C 9.4°F-12.6°C 88% 5.0 mph NW8.0 kmh NW 10.0 mph16.1 kmh 30.38 in1028.8 mb 0.00 in0.0 mm 0.00 in0.0 mm 0.00 in0.0 mm
10:29 AM 13.3°F-10.4°C 9.4°F-12.6°C 88% 8.0 mph NW12.9 kmh NW 11.0 mph17.7 kmh 30.39 in1029.1 mb 0.00 in0.0 mm 0.00 in0.0 mm 0.00 in0.0 mm
10:31 AM 13.3°F-10.4°C 9.4°F-12.6°C 88% 5.0 mph NW8.0 kmh NW 11.0 mph17.7 kmh 30.39 in1029.1 mb 0.00 in0.0 mm 0.00 in0.0 mm 0.00 in0.0 mm
10:33 AM 13.3°F-10.4°C 9.4°F-12.6°C 88% 3.0 mph NNW4.8 kmh NNW 11.0 mph17.7 kmh 30.39 in1029.1 mb 0.00 in0.0 mm 0.00 in0.0 mm 0.00 in0.0 mm
10:35 AM 13.4°F-10.3°C 9.5°F-12.5°C 88% 4.0 mph NW6.4 kmh NW 11.0 mph17.7 kmh 30.39 in1029.1 mb 0.00 in0.0 mm 0.00 in0.0 mm 0.00 in0.0 mm
10:37 AM 13.4°F-10.3°C 9.5°F-12.5°C 88% 3.0 mph N4.8 kmh N 11.0 mph17.7 kmh 30.39 in1029.1 mb 0.00 in0.0 mm 0.00 in0.0 mm 0.00 in0.0 mm
10:39 AM 13.4°F-10.3°C 9.5°F-12.5°C 88% 2.0 mph NNW3.2 kmh NNW 11.0 mph17.7 kmh 30.39 in1029.1 mb 0.00 in0.0 mm 0.00 in0.0 mm 0.00 in0.0 mm
10:41 AM 13.5°F-10.3°C 9.6°F-12.4°C 88% 4.0 mph N6.4 kmh N 11.0 mph17.7 kmh 30.39 in1029.1 mb 0.00 in0.0 mm 0.00 in0.0 mm 0.00 in0.0 mm
10:43 AM 13.5°F-10.3°C 9.6°F-12.4°C 88% 5.0 mph NW8.0 kmh NW 11.0 mph17.7 kmh 30.39 in1029.1 mb 0.00 in0.0 mm 0.00 in0.0 mm 0.00 in0.0 mm
10:45 AM 13.6°F-10.2°C 9.7°F-12.4°C 88% 4.0 mph NW6.4 kmh NW 11.0 mph17.7 kmh 30.39 in1029.1 mb 0.00 in0.0 mm 0.00 in0.0 mm 0.00 in0.0 mm
10:47 AM 13.6°F-10.2°C 9.7°F-12.4°C 88% 4.0 mph NNW6.4 kmh NNW 11.0 mph17.7 kmh 30.40 in1029.5 mb 0.00 in0.0 mm 0.00 in0.0 mm 0.00 in0.0 mm
10:49 AM 13.7°F-10.2°C 9.8°F-12.3°C 88% 5.0 mph NW8.0 kmh NW 10.0 mph16.1 kmh 30.40 in1029.5 mb 0.00 in0.0 mm 0.00 in0.0 mm 0.00 in0.0 mm
10:51 AM 13.7°F-10.2°C 9.8°F-12.3°C 88% 5.0 mph N8.0 kmh N 11.0 mph17.7 kmh 30.40 in1029.5 mb 0.00 in0.0 mm 0.00 in0.0 mm 0.00 in0.0 mm
10:53 AM 13.7°F-10.2°C 9.8°F-12.3°C 88% 4.0 mph NW6.4 kmh NW 11.0 mph17.7 kmh 30.40 in1029.5 mb 0.00 in0.0 mm 0.00 in0.0 mm 0.00 in0.0 mm
10:55 AM 13.7°F-10.2°C 9.8°F-12.3°C 88% 3.0 mph N4.8 kmh N 11.0 mph17.7 kmh 30.40 in1029.5 mb 0.00 in0.0 mm 0.00 in0.0 mm 0.00 in0.0 mm
10:57 AM 13.7°F-10.2°C 9.8°F-12.3°C 88% 6.0 mph NW9.7 kmh NW 11.0 mph17.7 kmh 30.40 in1029.5 mb 0.00 in0.0 mm 0.00 in0.0 mm 0.00 in0.0 mm
10:59 AM 13.7°F-10.2°C 9.8°F-12.3°C 88% 2.0 mph NW3.2 kmh NW 11.0 mph17.7 kmh 30.40 in1029.5 mb 0.00 in0.0 mm 0.00 in0.0 mm 0.00 in0.0 mm
11:01 AM 13.8°F-10.1°C 9.9°F-12.3°C 88% 3.0 mph N4.8 kmh N 11.0 mph17.7 kmh 30.41 in1029.8 mb 0.00 in0.0 mm 0.00 in0.0 mm 0.00 in0.0 mm
11:03 AM 13.9°F-10.1°C 10.0°F-12.2°C 88% 3.0 mph NW4.8 kmh NW 11.0 mph17.7 kmh 30.40 in1029.5 mb 0.00 in0.0 mm 0.00 in0.0 mm 0.00 in0.0 mm
11:05 AM 13.9°F-10.1°C 10.0°F-12.2°C 88% 5.0 mph NW8.0 kmh NW 11.0 mph17.7 kmh 30.41 in1029.8 mb 0.00 in0.0 mm 0.00 in0.0 mm 0.00 in0.0 mm
11:07 AM 13.9°F-10.1°C 9.7°F-12.4°C 87% 4.0 mph N6.4 kmh N 11.0 mph17.7 kmh 30.41 in1029.8 mb 0.00 in0.0 mm 0.00 in0.0 mm 0.00 in0.0 mm
11:09 AM 13.9°F-10.1°C 9.7°F-12.4°C 87% 4.0 mph NW6.4 kmh NW 11.0 mph17.7 kmh 30.41 in1029.8 mb 0.00 in0.0 mm 0.00 in0.0 mm 0.00 in0.0 mm
11:11 AM 13.9°F-10.1°C 9.7°F-12.4°C 87% 5.0 mph NW8.0 kmh NW 15.0 mph24.1 kmh 30.41 in1029.8 mb 0.00 in0.0 mm 0.00 in0.0 mm 0.00 in0.0 mm
11:13 AM 13.9°F-10.1°C 9.7°F-12.4°C 87% 5.0 mph NW8.0 kmh NW 15.0 mph24.1 kmh 30.41 in1029.8 mb 0.00 in0.0 mm 0.00 in0.0 mm 0.00 in0.0 mm
11:15 AM 13.9°F-10.1°C 9.7°F-12.4°C 87% 5.0 mph N8.0 kmh N 15.0 mph24.1 kmh 30.41 in1029.8 mb 0.00 in0.0 mm 0.00 in0.0 mm 0.00 in0.0 mm
11:17 AM 14.0°F-10.0°C 9.8°F-12.3°C 87% 7.0 mph N11.3 kmh N 15.0 mph24.1 kmh 30.41 in1029.8 mb 0.00 in0.0 mm 0.00 in0.0 mm 0.00 in0.0 mm
11:19 AM 14.0°F-10.0°C 9.8°F-12.3°C 87% 4.0 mph NNW6.4 kmh NNW 15.0 mph24.1 kmh 30.41 in1029.8 mb 0.00 in0.0 mm 0.00 in0.0 mm 0.00 in0.0 mm
11:21 AM 14.0°F-10.0°C 9.8°F-12.3°C 87% 6.0 mph NW9.7 kmh NW 15.0 mph24.1 kmh 30.41 in1029.8 mb 0.00 in0.0 mm 0.00 in0.0 mm 0.00 in0.0 mm
11:23 AM 14.1°F-9.9°C 9.9°F-12.3°C 87% 4.0 mph N6.4 kmh N 15.0 mph24.1 kmh 30.41 in1029.8 mb 0.00 in0.0 mm 0.00 in0.0 mm 0.00 in0.0 mm
11:25 AM 14.2°F-9.9°C 10.0°F-12.2°C 87% 5.0 mph NW8.0 kmh NW 15.0 mph24.1 kmh 30.41 in1029.8 mb 0.00 in0.0 mm 0.00 in0.0 mm 0.00 in0.0 mm
11:27 AM 14.2°F-9.9°C 10.0°F-12.2°C 87% 7.0 mph NW11.3 kmh NW 15.0 mph24.1 kmh 30.41 in1029.8 mb 0.00 in0.0 mm 0.00 in0.0 mm 0.00 in0.0 mm
11:29 AM 14.3°F-9.8°C 10.1°F-12.2°C 87% 4.0 mph NW6.4 kmh NW 15.0 mph24.1 kmh 30.41 in1029.8 mb 0.00 in0.0 mm 0.00 in0.0 mm 0.00 in0.0 mm
11:31 AM 14.3°F-9.8°C 10.1°F-12.2°C 87% 2.0 mph NW3.2 kmh NW 11.0 mph17.7 kmh 30.41 in1029.8 mb 0.00 in0.0 mm 0.00 in0.0 mm 0.00 in0.0 mm
11:33 AM 14.4°F-9.8°C 10.2°F-12.1°C 87% 8.0 mph NNW12.9 kmh NNW 11.0 mph17.7 kmh 30.42 in1030.1 mb 0.00 in0.0 mm 0.00 in0.0 mm 0.00 in0.0 mm
11:35 AM 14.5°F-9.7°C 10.3°F-12.1°C 87% 3.0 mph NW4.8 kmh NW 11.0 mph17.7 kmh 30.42 in1030.1 mb 0.00 in0.0 mm 0.00 in0.0 mm 0.00 in0.0 mm
11:37 AM 14.5°F-9.7°C 10.3°F-12.1°C 87% 5.0 mph NW8.0 kmh NW 11.0 mph17.7 kmh 30.42 in1030.1 mb 0.00 in0.0 mm 0.00 in0.0 mm 0.00 in0.0 mm
11:39 AM 14.5°F-9.7°C 10.3°F-12.1°C 87% 4.0 mph NNW6.4 kmh NNW 11.0 mph17.7 kmh 30.42 in1030.1 mb 0.00 in0.0 mm 0.00 in0.0 mm 0.00 in0.0 mm
11:41 AM 14.6°F-9.7°C 10.4°F-12.0°C 87% 3.0 mph NW4.8 kmh NW 10.0 mph16.1 kmh 30.42 in1030.1 mb 0.00 in0.0 mm 0.00 in0.0 mm 0.00 in0.0 mm
11:43 AM 14.7°F-9.6°C 10.5°F-11.9°C 87% 8.0 mph NW12.9 kmh NW 10.0 mph16.1 kmh 30.43 in1030.5 mb 0.00 in0.0 mm 0.00 in0.0 mm 0.00 in0.0 mm
11:45 AM 14.7°F-9.6°C 10.5°F-11.9°C 87% 4.0 mph NNE6.4 kmh NNE 10.0 mph16.1 kmh 30.43 in1030.5 mb 0.00 in0.0 mm 0.00 in0.0 mm 0.00 in0.0 mm
11:47 AM 14.7°F-9.6°C 10.2°F-12.1°C 86% 3.0 mph NW4.8 kmh NW 10.0 mph16.1 kmh 30.43 in1030.5 mb 0.00 in0.0 mm 0.00 in0.0 mm 0.00 in0.0 mm
11:49 AM 14.8°F-9.6°C 10.6°F-11.9°C 87% 4.0 mph NW6.4 kmh NW 10.0 mph16.1 kmh 30.43 in1030.5 mb 0.00 in0.0 mm 0.00 in0.0 mm 0.00 in0.0 mm
11:51 AM 14.8°F-9.6°C 10.6°F-11.9°C 87% 7.0 mph NNE11.3 kmh NNE 10.0 mph16.1 kmh 30.43 in1030.5 mb 0.00 in0.0 mm 0.00 in0.0 mm 0.00 in0.0 mm
11:53 AM 14.9°F-9.5°C 10.4°F-12.0°C 86% 4.0 mph N6.4 kmh N 10.0 mph16.1 kmh 30.43 in1030.5 mb 0.00 in0.0 mm 0.00 in0.0 mm 0.00 in0.0 mm
11:55 AM 14.9°F-9.5°C 10.4°F-12.0°C 86% 3.0 mph NW4.8 kmh NW 10.0 mph16.1 kmh 30.43 in1030.5 mb 0.00 in0.0 mm 0.00 in0.0 mm 0.00 in0.0 mm
11:57 AM 15.0°F-9.4°C 10.5°F-11.9°C 86% 5.0 mph NW8.0 kmh NW 10.0 mph16.1 kmh 30.43 in1030.5 mb 0.00 in0.0 mm 0.00 in0.0 mm 0.00 in0.0 mm
11:59 AM 15.0°F-9.4°C 10.5°F-11.9°C 86% 5.0 mph NW8.0 kmh NW 10.0 mph16.1 kmh 30.44 in1030.8 mb 0.00 in0.0 mm 0.00 in0.0 mm 0.00 in0.0 mm
12:01 PM 15.1°F-9.4°C 10.6°F-11.9°C 86% 6.0 mph NW9.7 kmh NW 10.0 mph16.1 kmh 30.44 in1030.8 mb 0.00 in0.0 mm 0.00 in0.0 mm 0.00 in0.0 mm
12:03 PM 15.1°F-9.4°C 10.6°F-11.9°C 86% 5.0 mph NW8.0 kmh NW 10.0 mph16.1 kmh 30.44 in1030.8 mb 0.00 in0.0 mm 0.00 in0.0 mm 0.00 in0.0 mm
12:05 PM 15.1°F-9.4°C 10.3°F-12.1°C 85% 4.0 mph N6.4 kmh N 10.0 mph16.1 kmh 30.44 in1030.8 mb 0.00 in0.0 mm 0.00 in0.0 mm 0.00 in0.0 mm
12:07 PM 15.1°F-9.4°C 10.3°F-12.1°C 85% 3.0 mph N4.8 kmh N 10.0 mph16.1 kmh 30.44 in1030.8 mb 0.00 in0.0 mm 0.00 in0.0 mm 0.00 in0.0 mm
12:09 PM 15.2°F-9.3°C 10.7°F-11.8°C 86% 2.0 mph NW3.2 kmh NW 10.0 mph16.1 kmh 30.45 in1031.2 mb 0.00 in0.0 mm 0.00 in0.0 mm 0.00 in0.0 mm
12:11 PM 15.4°F-9.2°C 10.9°F-11.7°C 86% 4.0 mph N6.4 kmh N 10.0 mph16.1 kmh 30.45 in1031.2 mb 0.00 in0.0 mm 0.00 in0.0 mm 0.00 in0.0 mm
12:13 PM 15.5°F-9.2°C 11.0°F-11.7°C 86% 4.0 mph N6.4 kmh N 10.0 mph16.1 kmh 30.45 in1031.2 mb 0.00 in0.0 mm 0.00 in0.0 mm 0.00 in0.0 mm
12:15 PM 15.7°F-9.1°C 11.2°F-11.6°C 86% 5.0 mph NW8.0 kmh NW 10.0 mph16.1 kmh 30.44 in1030.8 mb 0.00 in0.0 mm 0.00 in0.0 mm 0.00 in0.0 mm
12:17 PM 15.7°F-9.1°C 10.9°F-11.7°C 85% 5.0 mph N8.0 kmh N 10.0 mph16.1 kmh 30.44 in1030.8 mb 0.00 in0.0 mm 0.00 in0.0 mm 0.00 in0.0 mm
12:19 PM 15.7°F-9.1°C 10.9°F-11.7°C 85% 2.0 mph N3.2 kmh N 10.0 mph16.1 kmh 30.44 in1030.8 mb 0.00 in0.0 mm 0.00 in0.0 mm 0.00 in0.0 mm
12:21 PM 15.8°F-9.0°C 11.0°F-11.7°C 85% 5.0 mph N8.0 kmh N 10.0 mph16.1 kmh 30.44 in1030.8 mb 0.00 in0.0 mm 0.00 in0.0 mm 0.00 in0.0 mm
12:23 PM 15.8°F-9.0°C 11.0°F-11.7°C 85% 11.0 mph N17.7 kmh N 11.0 mph17.7 kmh 30.44 in1030.8 mb 0.00 in0.0 mm 0.00 in0.0 mm 0.00 in0.0 mm
12:25 PM 15.7°F-9.1°C 10.6°F-11.9°C 84% 8.0 mph NW12.9 kmh NW 13.0 mph20.9 kmh 30.44 in1030.8 mb 0.00 in0.0 mm 0.00 in0.0 mm 0.00 in0.0 mm
12:27 PM 15.6°F-9.1°C 10.6°F-11.9°C 84% 3.0 mph N4.8 kmh N 13.0 mph20.9 kmh 30.44 in1030.8 mb 0.00 in0.0 mm 0.00 in0.0 mm 0.00 in0.0 mm
12:29 PM 15.6°F-9.1°C 10.6°F-11.9°C 84% 4.0 mph NNW6.4 kmh NNW 13.0 mph20.9 kmh 30.45 in1031.2 mb 0.00 in0.0 mm 0.00 in0.0 mm 0.00 in0.0 mm
12:31 PM 15.7°F-9.1°C 10.6°F-11.9°C 84% 5.0 mph NNW8.0 kmh NNW 13.0 mph20.9 kmh 30.44 in1030.8 mb 0.00 in0.0 mm 0.00 in0.0 mm 0.00 in0.0 mm
12:33 PM 15.8°F-9.0°C 10.7°F-11.8°C 84% 3.0 mph NW4.8 kmh NW 13.0 mph20.9 kmh 30.44 in1030.8 mb 0.00 in0.0 mm 0.00 in0.0 mm 0.00 in0.0 mm
12:35 PM 15.8°F-9.0°C 10.7°F-11.8°C 84% 5.0 mph NW8.0 kmh NW 13.0 mph20.9 kmh 30.45 in1031.2 mb 0.00 in0.0 mm 0.00 in0.0 mm 0.00 in0.0 mm
12:37 PM 15.8°F-9.0°C 10.7°F-11.8°C 84% 4.0 mph NNW6.4 kmh NNW 13.0 mph20.9 kmh 30.44 in1030.8 mb 0.00 in0.0 mm 0.00 in0.0 mm 0.00 in0.0 mm
12:39 PM 15.9°F-8.9°C 10.8°F-11.8°C 84% 4.0 mph NW6.4 kmh NW 13.0 mph20.9 kmh 30.44 in1030.8 mb 0.00 in0.0 mm 0.00 in0.0 mm 0.00 in0.0 mm
12:41 PM 16.0°F-8.9°C 10.9°F-11.7°C 84% 6.0 mph NNW9.7 kmh NNW 13.0 mph20.9 kmh 30.44 in1030.8 mb 0.00 in0.0 mm 0.00 in0.0 mm 0.00 in0.0 mm
12:43 PM 16.0°F-8.9°C 10.9°F-11.7°C 84% 5.0 mph NW8.0 kmh NW 13.0 mph20.9 kmh 30.44 in1030.8 mb 0.00 in0.0 mm 0.00 in0.0 mm 0.00 in0.0 mm
12:45 PM 16.0°F-8.9°C 10.9°F-11.7°C 84% 5.0 mph NW8.0 kmh NW 9.0 mph14.5 kmh 30.44 in1030.8 mb 0.00 in0.0 mm 0.00 in0.0 mm 0.00 in0.0 mm
12:47 PM 16.0°F-8.9°C 10.9°F-11.7°C 84% 6.0 mph NNW9.7 kmh NNW 9.0 mph14.5 kmh 30.45 in1031.2 mb 0.00 in0.0 mm 0.00 in0.0 mm 0.00 in0.0 mm
12:49 PM 16.1°F-8.8°C 10.8°F-11.8°C 83% 6.0 mph NW9.7 kmh NW 11.0 mph17.7 kmh 30.44 in1030.8 mb 0.00 in0.0 mm 0.00 in0.0 mm 0.00 in0.0 mm
12:51 PM 16.2°F-8.8°C 11.1°F-11.6°C 84% 4.0 mph N6.4 kmh N 11.0 mph17.7 kmh 30.45 in1031.2 mb 0.00 in0.0 mm 0.00 in0.0 mm 0.00 in0.0 mm
12:53 PM 16.3°F-8.7°C 11.2°F-11.6°C 84% 5.0 mph NNE8.0 kmh NNE 11.0 mph17.7 kmh 30.45 in1031.2 mb 0.00 in0.0 mm 0.00 in0.0 mm 0.00 in0.0 mm
12:55 PM 16.4°F-8.7°C 11.0°F-11.7°C 83% 3.0 mph N4.8 kmh N 11.0 mph17.7 kmh 30.45 in1031.2 mb 0.00 in0.0 mm 0.00 in0.0 mm 0.00 in0.0 mm
12:57 PM 16.6°F-8.6°C 11.2°F-11.6°C 83% 5.0 mph 8.0 kmh 11.0 mph17.7 kmh 30.45 in1031.2 mb 0.00 in0.0 mm 0.00 in0.0 mm 0.00 in0.0 mm
12:59 PM 16.7°F-8.5°C 11.3°F-11.5°C 83% 5.0 mph NNW8.0 kmh NNW 11.0 mph17.7 kmh 30.45 in1031.2 mb 0.00 in0.0 mm 0.00 in0.0 mm 0.00 in0.0 mm
01:01 PM 16.6°F-8.6°C 11.0°F-11.7°C 82% 9.0 mph NNE14.5 kmh NNE 11.0 mph17.7 kmh 30.44 in1030.8 mb 0.00 in0.0 mm 0.00 in0.0 mm 0.00 in0.0 mm
01:03 PM 16.6°F-8.6°C 10.7°F-11.8°C 81% 2.0 mph NW3.2 kmh NW 11.0 mph17.7 kmh 30.44 in1030.8 mb 0.00 in0.0 mm 0.00 in0.0 mm 0.00 in0.0 mm
01:05 PM 16.6°F-8.6°C 11.0°F-11.7°C 82% 8.0 mph NW12.9 kmh NW 11.0 mph17.7 kmh 30.45 in1031.2 mb 0.00 in0.0 mm 0.00 in0.0 mm 0.00 in0.0 mm
01:07 PM 16.6°F-8.6°C 11.0°F-11.7°C 82% 5.0 mph NW8.0 kmh NW 11.0 mph17.7 kmh 30.45 in1031.2 mb 0.00 in0.0 mm 0.00 in0.0 mm 0.00 in0.0 mm
01:09 PM 16.5°F-8.6°C 10.9°F-11.7°C 82% 6.0 mph NW9.7 kmh NW 11.0 mph17.7 kmh 30.45 in1031.2 mb 0.00 in0.0 mm 0.00 in0.0 mm 0.00 in0.0 mm
01:11 PM 16.4°F-8.7°C 10.8°F-11.8°C 82% 6.0 mph NW9.7 kmh NW 11.0 mph17.7 kmh 30.45 in1031.2 mb 0.00 in0.0 mm 0.00 in0.0 mm 0.00 in0.0 mm
01:13 PM 16.3°F-8.7°C 10.7°F-11.8°C 82% 4.0 mph NNW6.4 kmh NNW 11.0 mph17.7 kmh 30.45 in1031.2 mb 0.00 in0.0 mm 0.00 in0.0 mm 0.00 in0.0 mm
01:15 PM 16.3°F-8.7°C 11.0°F-11.7°C 83% 5.0 mph 8.0 kmh 11.0 mph17.7 kmh 30.45 in1031.2 mb 0.00 in0.0 mm 0.00 in0.0 mm 0.00 in0.0 mm
01:17 PM 16.3°F-8.7°C 10.7°F-11.8°C 82% 5.0 mph NNW8.0 kmh NNW 11.0 mph17.7 kmh 30.45 in1031.2 mb 0.00 in0.0 mm 0.00 in0.0 mm 0.00 in0.0 mm
01:19 PM 16.3°F-8.7°C 11.0°F-11.7°C 83% 3.0 mph NW4.8 kmh NW 11.0 mph17.7 kmh 30.46 in1031.5 mb 0.00 in0.0 mm 0.00 in0.0 mm 0.00 in0.0 mm
01:21 PM 16.3°F-8.7°C 11.0°F-11.7°C 83% 4.0 mph NW6.4 kmh NW 11.0 mph17.7 kmh 30.45 in1031.2 mb 0.00 in0.0 mm 0.00 in0.0 mm 0.00 in0.0 mm
01:23 PM 16.2°F-8.8°C 10.6°F-11.9°C 82% 4.0 mph NNW6.4 kmh NNW 11.0 mph17.7 kmh 30.46 in1031.5 mb 0.00 in0.0 mm 0.00 in0.0 mm 0.00 in0.0 mm
01:25 PM 16.0°F-8.9°C 10.4°F-12.0°C 82% 6.0 mph NNW9.7 kmh NNW 11.0 mph17.7 kmh 30.46 in1031.5 mb 0.00 in0.0 mm 0.00 in0.0 mm 0.00 in0.0 mm
01:27 PM 15.9°F-8.9°C 10.6°F-11.9°C 83% 4.0 mph NW6.4 kmh NW 12.0 mph19.3 kmh 30.46 in1031.5 mb 0.00 in0.0 mm 0.00 in0.0 mm 0.00 in0.0 mm
01:29 PM 16.0°F-8.9°C 10.7°F-11.8°C 83% 3.0 mph NW4.8 kmh NW 12.0 mph19.3 kmh 30.46 in1031.5 mb 0.00 in0.0 mm 0.00 in0.0 mm 0.00 in0.0 mm
01:31 PM 16.2°F-8.8°C 11.1°F-11.6°C 84% 3.0 mph NNW4.8 kmh NNW 12.0 mph19.3 kmh 30.46 in1031.5 mb 0.00 in0.0 mm 0.00 in0.0 mm 0.00 in0.0 mm
01:33 PM 16.2°F-8.8°C 11.1°F-11.6°C 84% 5.0 mph NNW8.0 kmh NNW 12.0 mph19.3 kmh 30.46 in1031.5 mb 0.00 in0.0 mm 0.00 in0.0 mm 0.00 in0.0 mm
01:35 PM 16.3°F-8.7°C 11.0°F-11.7°C 83% 3.0 mph N4.8 kmh N 12.0 mph19.3 kmh 30.46 in1031.5 mb 0.00 in0.0 mm 0.00 in0.0 mm 0.00 in0.0 mm
01:37 PM 16.3°F-8.7°C 11.2°F-11.6°C 84% 4.0 mph NW6.4 kmh NW 12.0 mph19.3 kmh 30.46 in1031.5 mb 0.00 in0.0 mm 0.00 in0.0 mm 0.00 in0.0 mm
01:39 PM 16.5°F-8.6°C 11.4°F-11.4°C 84% 3.0 mph N4.8 kmh N 12.0 mph19.3 kmh 30.46 in1031.5 mb 0.00 in0.0 mm 0.00 in0.0 mm 0.00 in0.0 mm
01:41 PM 16.6°F-8.6°C 11.8°F-11.2°C 85% 4.0 mph NW6.4 kmh NW 12.0 mph19.3 kmh 30.46 in1031.5 mb 0.00 in0.0 mm 0.00 in0.0 mm 0.00 in0.0 mm
01:43 PM 16.7°F-8.5°C 11.9°F-11.2°C 85% 6.0 mph NW9.7 kmh NW 12.0 mph19.3 kmh 30.46 in1031.5 mb 0.00 in0.0 mm 0.00 in0.0 mm 0.00 in0.0 mm
01:45 PM 16.7°F-8.5°C 11.6°F-11.3°C 84% 3.0 mph WNW4.8 kmh WNW 12.0 mph19.3 kmh 30.47 in1031.8 mb 0.00 in0.0 mm 0.00 in0.0 mm 0.00 in0.0 mm
01:47 PM 16.7°F-8.5°C 11.9°F-11.2°C 85% 4.0 mph NW6.4 kmh NW 8.0 mph12.9 kmh 30.47 in1031.8 mb 0.00 in0.0 mm 0.00 in0.0 mm 0.00 in0.0 mm
01:49 PM 16.5°F-8.6°C 11.7°F-11.3°C 85% 4.0 mph NNW6.4 kmh NNW 8.0 mph12.9 kmh 30.47 in1031.8 mb 0.00 in0.0 mm 0.00 in0.0 mm 0.00 in0.0 mm
01:51 PM 16.2°F-8.8°C 11.4°F-11.4°C 85% 4.0 mph NW6.4 kmh NW 8.0 mph12.9 kmh 30.47 in1031.8 mb 0.00 in0.0 mm 0.00 in0.0 mm 0.00 in0.0 mm
01:53 PM 16.1°F-8.8°C 11.3°F-11.5°C 85% 3.0 mph NNW4.8 kmh NNW 8.0 mph12.9 kmh 30.47 in1031.8 mb 0.00 in0.0 mm 0.00 in0.0 mm 0.00 in0.0 mm
01:55 PM 15.9°F-8.9°C 11.4°F-11.4°C 86% 2.0 mph N3.2 kmh N 8.0 mph12.9 kmh 30.48 in1032.2 mb 0.00 in0.0 mm 0.00 in0.0 mm 0.00 in0.0 mm
01:57 PM 16.0°F-8.9°C 11.5°F-11.4°C 86% 2.0 mph N3.2 kmh N 8.0 mph12.9 kmh 30.48 in1032.2 mb 0.00 in0.0 mm 0.00 in0.0 mm 0.00 in0.0 mm
01:59 PM 16.0°F-8.9°C 11.5°F-11.4°C 86% 3.0 mph NNW4.8 kmh NNW 8.0 mph12.9 kmh 30.48 in1032.2 mb 0.00 in0.0 mm 0.00 in0.0 mm 0.00 in0.0 mm
02:03 PM 15.8°F-9.0°C 11.0°F-11.7°C 85% 2.0 mph NW3.2 kmh NW 8.0 mph12.9 kmh 30.48 in1032.2 mb 0.00 in0.0 mm 0.00 in0.0 mm 0.00 in0.0 mm
02:05 PM 15.8°F-9.0°C 11.0°F-11.7°C 85% 4.0 mph NW6.4 kmh NW 8.0 mph12.9 kmh 30.48 in1032.2 mb 0.00 in0.0 mm 0.00 in0.0 mm 0.00 in0.0 mm
02:07 PM 15.8°F-9.0°C 11.3°F-11.5°C 86% 3.0 mph NW4.8 kmh NW 8.0 mph12.9 kmh 30.48 in1032.2 mb 0.00 in0.0 mm 0.00 in0.0 mm 0.00 in0.0 mm
02:09 PM 15.9°F-8.9°C 11.4°F-11.4°C 86% 3.0 mph NW4.8 kmh NW 8.0 mph12.9 kmh 30.48 in1032.2 mb 0.00 in0.0 mm 0.00 in0.0 mm 0.00 in0.0 mm
02:11 PM 15.9°F-8.9°C 11.4°F-11.4°C 86% 6.0 mph W9.7 kmh W 8.0 mph12.9 kmh 30.48 in1032.2 mb 0.00 in0.0 mm 0.00 in0.0 mm 0.00 in0.0 mm
02:13 PM 15.9°F-8.9°C 11.4°F-11.4°C 86% 3.0 mph N4.8 kmh N 8.0 mph12.9 kmh 30.48 in1032.2 mb 0.00 in0.0 mm 0.00 in0.0 mm 0.00 in0.0 mm
02:15 PM 15.9°F-8.9°C 11.4°F-11.4°C 86% 4.0 mph NW6.4 kmh NW 8.0 mph12.9 kmh 30.48 in1032.2 mb 0.00 in0.0 mm 0.00 in0.0 mm 0.00 in0.0 mm
02:17 PM 15.8°F-9.0°C 11.3°F-11.5°C 86% 4.0 mph NW6.4 kmh NW 8.0 mph12.9 kmh 30.48 in1032.2 mb 0.00 in0.0 mm 0.00 in0.0 mm 0.00 in0.0 mm
02:19 PM 15.6°F-9.1°C 11.1°F-11.6°C 86% 1.0 mph NW1.6 kmh NW 8.0 mph12.9 kmh 30.48 in1032.2 mb 0.00 in0.0 mm 0.00 in0.0 mm 0.00 in0.0 mm
02:21 PM 15.5°F-9.2°C 11.0°F-11.7°C 86% 4.0 mph 6.4 kmh 9.0 mph14.5 kmh 30.49 in1032.5 mb 0.00 in0.0 mm 0.00 in0.0 mm 0.00 in0.0 mm
02:23 PM 15.4°F-9.2°C 10.9°F-11.7°C 86% 3.0 mph NNW4.8 kmh NNW 9.0 mph14.5 kmh 30.49 in1032.5 mb 0.00 in0.0 mm 0.00 in0.0 mm 0.00 in0.0 mm
02:25 PM 15.3°F-9.3°C 10.8°F-11.8°C 86% 2.0 mph NNE3.2 kmh NNE 9.0 mph14.5 kmh 30.49 in1032.5 mb 0.00 in0.0 mm 0.00 in0.0 mm 0.00 in0.0 mm
02:27 PM 15.2°F-9.3°C 10.7°F-11.8°C 86% 4.0 mph NW6.4 kmh NW 9.0 mph14.5 kmh 30.49 in1032.5 mb 0.00 in0.0 mm 0.00 in0.0 mm 0.00 in0.0 mm
02:29 PM 15.1°F-9.4°C 10.6°F-11.9°C 86% 5.0 mph NW8.0 kmh NW 9.0 mph14.5 kmh 30.49 in1032.5 mb 0.00 in0.0 mm 0.00 in0.0 mm 0.00 in0.0 mm
02:31 PM 15.1°F-9.4°C 10.6°F-11.9°C 86% 4.0 mph NNW6.4 kmh NNW 9.0 mph14.5 kmh 30.49 in1032.5 mb 0.00 in0.0 mm 0.00 in0.0 mm 0.00 in0.0 mm
02:33 PM 15.2°F-9.3°C 10.7°F-11.8°C 86% 2.0 mph NNW3.2 kmh NNW 9.0 mph14.5 kmh 30.49 in1032.5 mb 0.00 in0.0 mm 0.00 in0.0 mm 0.00 in0.0 mm
02:35 PM 15.3°F-9.3°C 10.8°F-11.8°C 86% 5.0 mph NNW8.0 kmh NNW 9.0 mph14.5 kmh 30.49 in1032.5 mb 0.00 in0.0 mm 0.00 in0.0 mm 0.00 in0.0 mm
02:37 PM 15.4°F-9.2°C 10.9°F-11.7°C 86% 4.0 mph NW6.4 kmh NW 9.0 mph14.5 kmh 30.49 in1032.5 mb 0.00 in0.0 mm 0.00 in0.0 mm 0.00 in0.0 mm
02:39 PM 15.4°F-9.2°C 10.9°F-11.7°C 86% 3.0 mph N4.8 kmh N 9.0 mph14.5 kmh 30.49 in1032.5 mb 0.00 in0.0 mm 0.00 in0.0 mm 0.00 in0.0 mm
02:41 PM 15.4°F-9.2°C 10.9°F-11.7°C 86% 2.0 mph NW3.2 kmh NW 8.0 mph12.9 kmh 30.49 in1032.5 mb 0.00 in0.0 mm 0.00 in0.0 mm 0.00 in0.0 mm
02:43 PM 15.5°F-9.2°C 11.0°F-11.7°C 86% 3.0 mph NW4.8 kmh NW 8.0 mph12.9 kmh 30.49 in1032.5 mb 0.00 in0.0 mm 0.00 in0.0 mm 0.00 in0.0 mm
02:45 PM 15.6°F-9.1°C 11.1°F-11.6°C 86% 4.0 mph NW6.4 kmh NW 8.0 mph12.9 kmh 30.50 in1032.8 mb 0.00 in0.0 mm 0.00 in0.0 mm 0.00 in0.0 mm
02:47 PM 15.8°F-9.0°C 11.3°F-11.5°C 86% 3.0 mph NW4.8 kmh NW 8.0 mph12.9 kmh 30.50 in1032.8 mb 0.00 in0.0 mm 0.00 in0.0 mm 0.00 in0.0 mm
02:49 PM 15.8°F-9.0°C 11.3°F-11.5°C 86% 3.0 mph N4.8 kmh N 8.0 mph12.9 kmh 30.49 in1032.5 mb 0.00 in0.0 mm 0.00 in0.0 mm 0.00 in0.0 mm
02:51 PM 15.9°F-8.9°C 11.4°F-11.4°C 86% 4.0 mph NW6.4 kmh NW 8.0 mph12.9 kmh 30.49 in1032.5 mb 0.00 in0.0 mm 0.00 in0.0 mm 0.00 in0.0 mm
02:53 PM 15.8°F-9.0°C 11.0°F-11.7°C 85% 4.0 mph NNE6.4 kmh NNE 8.0 mph12.9 kmh 30.50 in1032.8 mb 0.00 in0.0 mm 0.00 in0.0 mm 0.00 in0.0 mm
02:55 PM 15.7°F-9.1°C 10.9°F-11.7°C 85% 5.0 mph NE8.0 kmh NE 12.0 mph19.3 kmh 30.50 in1032.8 mb 0.00 in0.0 mm 0.00 in0.0 mm 0.00 in0.0 mm
02:57 PM 15.5°F-9.2°C 10.7°F-11.8°C 85% 2.0 mph 3.2 kmh 12.0 mph19.3 kmh 30.50 in1032.8 mb 0.00 in0.0 mm 0.00 in0.0 mm 0.00 in0.0 mm
02:59 PM 15.5°F-9.2°C 10.7°F-11.8°C 85% 4.0 mph NW6.4 kmh NW 12.0 mph19.3 kmh 30.50 in1032.8 mb 0.00 in0.0 mm 0.00 in0.0 mm 0.00 in0.0 mm
03:01 PM 15.4°F-9.2°C 10.6°F-11.9°C 85% 3.0 mph NE4.8 kmh NE 12.0 mph19.3 kmh 30.50 in1032.8 mb 0.00 in0.0 mm 0.00 in0.0 mm 0.00 in0.0 mm
03:03 PM 15.4°F-9.2°C 10.6°F-11.9°C 85% 2.0 mph NNE3.2 kmh NNE 12.0 mph19.3 kmh 30.50 in1032.8 mb 0.00 in0.0 mm 0.00 in0.0 mm 0.00 in0.0 mm
03:05 PM 15.4°F-9.2°C 10.6°F-11.9°C 85% 4.0 mph NW6.4 kmh NW 12.0 mph19.3 kmh 30.50 in1032.8 mb 0.00 in0.0 mm 0.00 in0.0 mm 0.00 in0.0 mm
03:07 PM 15.4°F-9.2°C 10.6°F-11.9°C 85% 3.0 mph NW4.8 kmh NW 12.0 mph19.3 kmh 30.50 in1032.8 mb 0.00 in0.0 mm 0.00 in0.0 mm 0.00 in0.0 mm
03:09 PM 15.4°F-9.2°C 10.6°F-11.9°C 85% 2.0 mph N3.2 kmh N 12.0 mph19.3 kmh 30.51 in1033.2 mb 0.00 in0.0 mm 0.00 in0.0 mm 0.00 in0.0 mm
03:11 PM 15.4°F-9.2°C 10.6°F-11.9°C 85% 3.0 mph N4.8 kmh N 12.0 mph19.3 kmh 30.51 in1033.2 mb 0.00 in0.0 mm 0.00 in0.0 mm 0.00 in0.0 mm
03:13 PM 15.3°F-9.3°C 10.3°F-12.1°C 84% 2.0 mph NNW3.2 kmh NNW 12.0 mph19.3 kmh 30.51 in1033.2 mb 0.00 in0.0 mm 0.00 in0.0 mm 0.00 in0.0 mm
03:15 PM 15.4°F-9.2°C 10.6°F-11.9°C 85% 2.0 mph NW3.2 kmh NW 6.0 mph9.7 kmh 30.51 in1033.2 mb 0.00 in0.0 mm 0.00 in0.0 mm 0.00 in0.0 mm
03:17 PM 15.4°F-9.2°C 10.4°F-12.0°C 84% 4.0 mph NW6.4 kmh NW 8.0 mph12.9 kmh 30.51 in1033.2 mb 0.00 in0.0 mm 0.00 in0.0 mm 0.00 in0.0 mm
03:19 PM 15.4°F-9.2°C 10.4°F-12.0°C 84% 2.0 mph NW3.2 kmh NW 8.0 mph12.9 kmh 30.51 in1033.2 mb 0.00 in0.0 mm 0.00 in0.0 mm 0.00 in0.0 mm
03:21 PM 15.3°F-9.3°C 10.0°F-12.2°C 83% 5.0 mph WNW8.0 kmh WNW 8.0 mph12.9 kmh 30.51 in1033.2 mb 0.00 in0.0 mm 0.00 in0.0 mm 0.00 in0.0 mm
03:23 PM 15.3°F-9.3°C 10.3°F-12.1°C 84% 2.0 mph NW3.2 kmh NW 8.0 mph12.9 kmh 30.51 in1033.2 mb 0.00 in0.0 mm 0.00 in0.0 mm 0.00 in0.0 mm
03:25 PM 15.3°F-9.3°C 10.3°F-12.1°C 84% 3.0 mph N4.8 kmh N 8.0 mph12.9 kmh 30.51 in1033.2 mb 0.00 in0.0 mm 0.00 in0.0 mm 0.00 in0.0 mm
03:27 PM 15.3°F-9.3°C 10.3°F-12.1°C 84% 3.0 mph N4.8 kmh N 8.0 mph12.9 kmh 30.51 in1033.2 mb 0.00 in0.0 mm 0.00 in0.0 mm 0.00 in0.0 mm
03:29 PM 15.3°F-9.3°C 10.3°F-12.1°C 84% 3.0 mph NW4.8 kmh NW 8.0 mph12.9 kmh 30.51 in1033.2 mb 0.00 in0.0 mm 0.00 in0.0 mm 0.00 in0.0 mm
03:31 PM 15.3°F-9.3°C 10.3°F-12.1°C 84% 3.0 mph 4.8 kmh 8.0 mph12.9 kmh 30.51 in1033.2 mb 0.00 in0.0 mm 0.00 in0.0 mm 0.00 in0.0 mm
03:33 PM 15.4°F-9.2°C 10.4°F-12.0°C 84% 3.0 mph NNW4.8 kmh NNW 8.0 mph12.9 kmh 30.51 in1033.2 mb 0.00 in0.0 mm 0.00 in0.0 mm 0.00 in0.0 mm
03:35 PM 15.4°F-9.2°C 10.4°F-12.0°C 84% 4.0 mph NNW6.4 kmh NNW 8.0 mph12.9 kmh 30.51 in1033.2 mb 0.00 in0.0 mm 0.00 in0.0 mm 0.00 in0.0 mm
03:37 PM 15.4°F-9.2°C 10.4°F-12.0°C 84% 2.0 mph NW3.2 kmh NW 6.0 mph9.7 kmh 30.51 in1033.2 mb 0.00 in0.0 mm 0.00 in0.0 mm 0.00 in0.0 mm
03:39 PM 15.3°F-9.3°C 10.3°F-12.1°C 84% 3.0 mph N4.8 kmh N 6.0 mph9.7 kmh 30.51 in1033.2 mb 0.00 in0.0 mm 0.00 in0.0 mm 0.00 in0.0 mm
03:41 PM 15.3°F-9.3°C 10.3°F-12.1°C 84% 2.0 mph NW3.2 kmh NW 6.0 mph9.7 kmh 30.51 in1033.2 mb 0.00 in0.0 mm 0.00 in0.0 mm 0.00 in0.0 mm
03:43 PM 15.3°F-9.3°C 10.3°F-12.1°C 84% 2.0 mph NNW3.2 kmh NNW 6.0 mph9.7 kmh 30.51 in1033.2 mb 0.00 in0.0 mm 0.00 in0.0 mm 0.00 in0.0 mm
03:45 PM 15.3°F-9.3°C 10.3°F-12.1°C 84% 3.0 mph NW4.8 kmh NW 7.0 mph11.3 kmh 30.51 in1033.2 mb 0.00 in0.0 mm 0.00 in0.0 mm 0.00 in0.0 mm
03:47 PM 15.3°F-9.3°C 10.3°F-12.1°C 84% 3.0 mph 4.8 kmh 7.0 mph11.3 kmh 30.51 in1033.2 mb 0.00 in0.0 mm 0.00 in0.0 mm 0.00 in0.0 mm
03:49 PM 15.3°F-9.3°C 10.3°F-12.1°C 84% 3.0 mph N4.8 kmh N 7.0 mph11.3 kmh 30.51 in1033.2 mb 0.00 in0.0 mm 0.00 in0.0 mm 0.00 in0.0 mm
03:51 PM 15.2°F-9.3°C 10.2°F-12.1°C 84% 2.0 mph NNW3.2 kmh NNW 9.0 mph14.5 kmh 30.51 in1033.2 mb 0.00 in0.0 mm 0.00 in0.0 mm 0.00 in0.0 mm
03:53 PM 15.2°F-9.3°C 10.2°F-12.1°C 84% 3.0 mph NW4.8 kmh NW 9.0 mph14.5 kmh 30.51 in1033.2 mb 0.00 in0.0 mm 0.00 in0.0 mm 0.00 in0.0 mm
03:55 PM 15.2°F-9.3°C 10.2°F-12.1°C 84% 3.0 mph NW4.8 kmh NW 9.0 mph14.5 kmh 30.51 in1033.2 mb 0.00 in0.0 mm 0.00 in0.0 mm 0.00 in0.0 mm
03:57 PM 15.2°F-9.3°C 10.2°F-12.1°C 84% 3.0 mph N4.8 kmh N 9.0 mph14.5 kmh 30.51 in1033.2 mb 0.00 in0.0 mm 0.00 in0.0 mm 0.00 in0.0 mm
03:59 PM 15.2°F-9.3°C 9.9°F-12.3°C 83% 2.0 mph N3.2 kmh N 9.0 mph14.5 kmh 30.51 in1033.2 mb 0.00 in0.0 mm 0.00 in0.0 mm 0.00 in0.0 mm
04:01 PM 15.2°F-9.3°C 9.9°F-12.3°C 83% 8.0 mph NNW12.9 kmh NNW 9.0 mph14.5 kmh 30.51 in1033.2 mb 0.00 in0.0 mm 0.00 in0.0 mm 0.00 in0.0 mm
04:03 PM 15.2°F-9.3°C 9.9°F-12.3°C 83% 5.0 mph NW8.0 kmh NW 9.0 mph14.5 kmh 30.51 in1033.2 mb 0.00 in0.0 mm 0.00 in0.0 mm 0.00 in0.0 mm
04:05 PM 15.2°F-9.3°C 9.9°F-12.3°C 83% 3.0 mph NW4.8 kmh NW 9.0 mph14.5 kmh 30.51 in1033.2 mb 0.00 in0.0 mm 0.00 in0.0 mm 0.00 in0.0 mm
04:07 PM 15.0°F-9.4°C 9.4°F-12.6°C 82% 3.0 mph NNW4.8 kmh NNW 11.0 mph17.7 kmh 30.51 in1033.2 mb 0.00 in0.0 mm 0.00 in0.0 mm 0.00 in0.0 mm
04:09 PM 15.0°F-9.4°C 9.4°F-12.6°C 82% 3.0 mph NW4.8 kmh NW 11.0 mph17.7 kmh 30.51 in1033.2 mb 0.00 in0.0 mm 0.00 in0.0 mm 0.00 in0.0 mm
04:11 PM 15.0°F-9.4°C 9.4°F-12.6°C 82% 2.0 mph N3.2 kmh N 11.0 mph17.7 kmh 30.51 in1033.2 mb 0.00 in0.0 mm 0.00 in0.0 mm 0.00 in0.0 mm
04:13 PM 15.1°F-9.4°C 9.5°F-12.5°C 82% 3.0 mph NNW4.8 kmh NNW 11.0 mph17.7 kmh 30.51 in1033.2 mb 0.00 in0.0 mm 0.00 in0.0 mm 0.00 in0.0 mm
04:15 PM 15.1°F-9.4°C 9.5°F-12.5°C 82% 5.0 mph 8.0 kmh 11.0 mph17.7 kmh 30.52 in1033.5 mb 0.00 in0.0 mm 0.00 in0.0 mm 0.00 in0.0 mm
04:17 PM 15.1°F-9.4°C 9.2°F-12.7°C 81% 4.0 mph N6.4 kmh N 11.0 mph17.7 kmh 30.52 in1033.5 mb 0.00 in0.0 mm 0.00 in0.0 mm 0.00 in0.0 mm
04:19 PM 15.1°F-9.4°C 9.2°F-12.7°C 81% 3.0 mph NW4.8 kmh NW 11.0 mph17.7 kmh 30.52 in1033.5 mb 0.00 in0.0 mm 0.00 in0.0 mm 0.00 in0.0 mm
04:21 PM 15.2°F-9.3°C 9.3°F-12.6°C 81% 4.0 mph 6.4 kmh 11.0 mph17.7 kmh 30.52 in1033.5 mb 0.00 in0.0 mm 0.00 in0.0 mm 0.00 in0.0 mm
04:23 PM 15.2°F-9.3°C 9.3°F-12.6°C 81% 3.0 mph NNW4.8 kmh NNW 11.0 mph17.7 kmh 30.52 in1033.5 mb 0.00 in0.0 mm 0.00 in0.0 mm 0.00 in0.0 mm
04:25 PM 15.2°F-9.3°C 9.3°F-12.6°C 81% 10.0 mph N16.1 kmh N 11.0 mph17.7 kmh 30.52 in1033.5 mb 0.00 in0.0 mm 0.00 in0.0 mm 0.00 in0.0 mm
04:27 PM 15.2°F-9.3°C 8.7°F-12.9°C 79% 8.0 mph NE12.9 kmh NE 10.0 mph16.1 kmh 30.52 in1033.5 mb 0.00 in0.0 mm 0.00 in0.0 mm 0.00 in0.0 mm
04:29 PM 15.1°F-9.4°C 8.6°F-13.0°C 79% 5.0 mph NW8.0 kmh NW 10.0 mph16.1 kmh 30.52 in1033.5 mb 0.00 in0.0 mm 0.00 in0.0 mm 0.00 in0.0 mm
04:31 PM 15.0°F-9.4°C 8.5°F-13.1°C 79% 3.0 mph N4.8 kmh N 11.0 mph17.7 kmh 30.52 in1033.5 mb 0.00 in0.0 mm 0.00 in0.0 mm 0.00 in0.0 mm
04:33 PM 15.0°F-9.4°C 8.8°F-12.9°C 80% 3.0 mph NE4.8 kmh NE 11.0 mph17.7 kmh 30.52 in1033.5 mb 0.00 in0.0 mm 0.00 in0.0 mm 0.00 in0.0 mm
04:35 PM 15.0°F-9.4°C 8.8°F-12.9°C 80% 3.0 mph N4.8 kmh N 11.0 mph17.7 kmh 30.52 in1033.5 mb 0.00 in0.0 mm 0.00 in0.0 mm 0.00 in0.0 mm
04:37 PM 15.0°F-9.4°C 8.8°F-12.9°C 80% 4.0 mph N6.4 kmh N 11.0 mph17.7 kmh 30.52 in1033.5 mb 0.00 in0.0 mm 0.00 in0.0 mm 0.00 in0.0 mm
04:39 PM 15.0°F-9.4°C 8.8°F-12.9°C 80% 5.0 mph NNW8.0 kmh NNW 11.0 mph17.7 kmh 30.52 in1033.5 mb 0.00 in0.0 mm 0.00 in0.0 mm 0.00 in0.0 mm
04:41 PM 15.0°F-9.4°C 8.8°F-12.9°C 80% 6.0 mph NNW9.7 kmh NNW 11.0 mph17.7 kmh 30.52 in1033.5 mb 0.00 in0.0 mm 0.00 in0.0 mm 0.00 in0.0 mm
04:43 PM 15.0°F-9.4°C 8.5°F-13.1°C 79% 4.0 mph NW6.4 kmh NW 11.0 mph17.7 kmh 30.52 in1033.5 mb 0.00 in0.0 mm 0.00 in0.0 mm 0.00 in0.0 mm
04:45 PM 15.0°F-9.4°C 8.5°F-13.1°C 79% 5.0 mph NW8.0 kmh NW 11.0 mph17.7 kmh 30.52 in1033.5 mb 0.00 in0.0 mm 0.00 in0.0 mm 0.00 in0.0 mm
04:47 PM 15.0°F-9.4°C 8.5°F-13.1°C 79% 6.0 mph NW9.7 kmh NW 11.0 mph17.7 kmh 30.52 in1033.5 mb 0.00 in0.0 mm 0.00 in0.0 mm 0.00 in0.0 mm
04:49 PM 15.0°F-9.4°C 8.5°F-13.1°C 79% 4.0 mph N6.4 kmh N 11.0 mph17.7 kmh 30.52 in1033.5 mb 0.00 in0.0 mm 0.00 in0.0 mm 0.00 in0.0 mm
04:51 PM 15.0°F-9.4°C 8.5°F-13.1°C 79% 3.0 mph N4.8 kmh N 10.0 mph16.1 kmh 30.52 in1033.5 mb 0.00 in0.0 mm 0.00 in0.0 mm 0.00 in0.0 mm
04:53 PM 15.0°F-9.4°C 8.8°F-12.9°C 80% 2.0 mph N3.2 kmh N 10.0 mph16.1 kmh 30.52 in1033.5 mb 0.00 in0.0 mm 0.00 in0.0 mm 0.00 in0.0 mm
04:55 PM 15.0°F-9.4°C 8.8°F-12.9°C 80% 4.0 mph 6.4 kmh 10.0 mph16.1 kmh 30.53 in1033.9 mb 0.00 in0.0 mm 0.00 in0.0 mm 0.00 in0.0 mm
04:57 PM 15.0°F-9.4°C 8.8°F-12.9°C 80% 3.0 mph NW4.8 kmh NW 10.0 mph16.1 kmh 30.53 in1033.9 mb 0.00 in0.0 mm 0.00 in0.0 mm 0.00 in0.0 mm
04:59 PM 15.0°F-9.4°C 8.8°F-12.9°C 80% 2.0 mph NNE3.2 kmh NNE 10.0 mph16.1 kmh 30.53 in1033.9 mb 0.00 in0.0 mm 0.00 in0.0 mm 0.00 in0.0 mm
05:01 PM 15.0°F-9.4°C 8.8°F-12.9°C 80% 2.0 mph N3.2 kmh N 7.0 mph11.3 kmh 30.53 in1033.9 mb 0.00 in0.0 mm 0.00 in0.0 mm 0.00 in0.0 mm
05:03 PM 15.0°F-9.4°C 9.1°F-12.7°C 81% 2.0 mph N3.2 kmh N 7.0 mph11.3 kmh 30.53 in1033.9 mb 0.00 in0.0 mm 0.00 in0.0 mm 0.00 in0.0 mm
05:05 PM 15.1°F-9.4°C 9.2°F-12.7°C 81% 5.0 mph NW8.0 kmh NW 8.0 mph12.9 kmh 30.53 in1033.9 mb 0.00 in0.0 mm 0.00 in0.0 mm 0.00 in0.0 mm
05:07 PM 15.0°F-9.4°C 8.8°F-12.9°C 80% 3.0 mph NW4.8 kmh NW 8.0 mph12.9 kmh 30.53 in1033.9 mb 0.00 in0.0 mm 0.00 in0.0 mm 0.00 in0.0 mm
05:09 PM 14.9°F-9.5°C 8.7°F-12.9°C 80% 3.0 mph N4.8 kmh N 8.0 mph12.9 kmh 30.53 in1033.9 mb 0.00 in0.0 mm 0.00 in0.0 mm 0.00 in0.0 mm
05:11 PM 14.9°F-9.5°C 8.7°F-12.9°C 80% 3.0 mph N4.8 kmh N 8.0 mph12.9 kmh 30.54 in1034.2 mb 0.00 in0.0 mm 0.00 in0.0 mm 0.00 in0.0 mm
05:13 PM 14.8°F-9.6°C 8.6°F-13.0°C 80% 4.0 mph NE6.4 kmh NE 8.0 mph12.9 kmh 30.54 in1034.2 mb 0.00 in0.0 mm 0.00 in0.0 mm 0.00 in0.0 mm
05:15 PM 14.8°F-9.6°C 8.6°F-13.0°C 80% 6.0 mph NE9.7 kmh NE 8.0 mph12.9 kmh 30.54 in1034.2 mb 0.00 in0.0 mm 0.00 in0.0 mm 0.00 in0.0 mm
05:17 PM 14.7°F-9.6°C 8.2°F-13.2°C 79% 4.0 mph NNE6.4 kmh NNE 8.0 mph12.9 kmh 30.54 in1034.2 mb 0.00 in0.0 mm 0.00 in0.0 mm 0.00 in0.0 mm
05:19 PM 14.7°F-9.6°C 8.2°F-13.2°C 79% 3.0 mph NE4.8 kmh NE 9.0 mph14.5 kmh 30.54 in1034.2 mb 0.00 in0.0 mm 0.00 in0.0 mm 0.00 in0.0 mm
05:21 PM 14.6°F-9.7°C 8.1°F-13.3°C 79% 2.0 mph NNW3.2 kmh NNW 9.0 mph14.5 kmh 30.54 in1034.2 mb 0.00 in0.0 mm 0.00 in0.0 mm 0.00 in0.0 mm
05:23 PM 14.6°F-9.7°C 8.4°F-13.1°C 80% 3.0 mph 4.8 kmh 9.0 mph14.5 kmh 30.54 in1034.2 mb 0.00 in0.0 mm 0.00 in0.0 mm 0.00 in0.0 mm
05:25 PM 14.6°F-9.7°C 8.4°F-13.1°C 80% 1.0 mph N1.6 kmh N 9.0 mph14.5 kmh 30.54 in1034.2 mb 0.00 in0.0 mm 0.00 in0.0 mm 0.00 in0.0 mm
05:27 PM 14.6°F-9.7°C 8.7°F-12.9°C 81% 2.0 mph N3.2 kmh N 9.0 mph14.5 kmh 30.54 in1034.2 mb 0.00 in0.0 mm 0.00 in0.0 mm 0.00 in0.0 mm
05:29 PM 14.5°F-9.7°C 8.6°F-13.0°C 81% 2.0 mph N3.2 kmh N 9.0 mph14.5 kmh 30.55 in1034.5 mb 0.00 in0.0 mm 0.00 in0.0 mm 0.00 in0.0 mm
05:31 PM 14.5°F-9.7°C 8.3°F-13.2°C 80% 6.0 mph NE9.7 kmh NE 9.0 mph14.5 kmh 30.55 in1034.5 mb 0.00 in0.0 mm 0.00 in0.0 mm 0.00 in0.0 mm
05:33 PM 14.4°F-9.8°C 8.2°F-13.2°C 80% 1.0 mph NW1.6 kmh NW 9.0 mph14.5 kmh 30.55 in1034.5 mb 0.00 in0.0 mm 0.00 in0.0 mm 0.00 in0.0 mm
05:35 PM 14.4°F-9.8°C 8.0°F-13.3°C 79% 2.0 mph NNW3.2 kmh NNW 9.0 mph14.5 kmh 30.55 in1034.5 mb 0.00 in0.0 mm 0.00 in0.0 mm 0.00 in0.0 mm
05:37 PM 14.3°F-9.8°C 8.1°F-13.3°C 80% 2.0 mph N3.2 kmh N 9.0 mph14.5 kmh 30.55 in1034.5 mb 0.00 in0.0 mm 0.00 in0.0 mm 0.00 in0.0 mm
05:39 PM 14.3°F-9.8°C 8.1°F-13.3°C 80% 2.0 mph NW3.2 kmh NW 9.0 mph14.5 kmh 30.55 in1034.5 mb 0.00 in0.0 mm 0.00 in0.0 mm 0.00 in0.0 mm
05:41 PM 14.2°F-9.9°C 8.0°F-13.3°C 80% 3.0 mph WNW4.8 kmh WNW 9.0 mph14.5 kmh 30.55 in1034.5 mb 0.00 in0.0 mm 0.00 in0.0 mm 0.00 in0.0 mm
05:43 PM 14.2°F-9.9°C 8.0°F-13.3°C 80% 3.0 mph NNW4.8 kmh NNW 9.0 mph14.5 kmh 30.55 in1034.5 mb 0.00 in0.0 mm 0.00 in0.0 mm 0.00 in0.0 mm
05:45 PM 14.1°F-9.9°C 7.7°F-13.5°C 79% 3.0 mph 4.8 kmh 9.0 mph14.5 kmh 30.55 in1034.5 mb 0.00 in0.0 mm 0.00 in0.0 mm 0.00 in0.0 mm
05:47 PM 14.1°F-9.9°C 7.7°F-13.5°C 79% 3.0 mph NNE4.8 kmh NNE 9.0 mph14.5 kmh 30.55 in1034.5 mb 0.00 in0.0 mm 0.00 in0.0 mm 0.00 in0.0 mm
05:49 PM 14.1°F-9.9°C 8.0°F-13.3°C 80% 1.0 mph NNE1.6 kmh NNE 9.0 mph14.5 kmh 30.55 in1034.5 mb 0.00 in0.0 mm 0.00 in0.0 mm 0.00 in0.0 mm
05:51 PM 14.1°F-9.9°C 8.0°F-13.3°C 80% 2.0 mph NNW3.2 kmh NNW 9.0 mph14.5 kmh 30.55 in1034.5 mb 0.00 in0.0 mm 0.00 in0.0 mm 0.00 in0.0 mm
05:53 PM 14.1°F-9.9°C 8.0°F-13.3°C 80% 2.0 mph NNW3.2 kmh NNW 6.0 mph9.7 kmh 30.56 in1034.9 mb 0.00 in0.0 mm 0.00 in0.0 mm 0.00 in0.0 mm
05:55 PM 14.0°F-10.0°C 7.9°F-13.4°C 80% 2.0 mph NW3.2 kmh NW 6.0 mph9.7 kmh 30.56 in1034.9 mb 0.00 in0.0 mm 0.00 in0.0 mm 0.00 in0.0 mm
05:57 PM 14.0°F-10.0°C 7.9°F-13.4°C 80% 3.0 mph NW4.8 kmh NW 6.0 mph9.7 kmh 30.56 in1034.9 mb 0.00 in0.0 mm 0.00 in0.0 mm 0.00 in0.0 mm
05:59 PM 14.0°F-10.0°C 7.9°F-13.4°C 80% 3.0 mph NNW4.8 kmh NNW 6.0 mph9.7 kmh 30.56 in1034.9 mb 0.00 in0.0 mm 0.00 in0.0 mm 0.00 in0.0 mm
06:01 PM 13.9°F-10.1°C 7.5°F-13.6°C 79% 3.0 mph NNW4.8 kmh NNW 6.0 mph9.7 kmh 30.56 in1034.9 mb 0.00 in0.0 mm 0.00 in0.0 mm 0.00 in0.0 mm
06:03 PM 13.9°F-10.1°C 7.5°F-13.6°C 79% 2.0 mph NNE3.2 kmh NNE 6.0 mph9.7 kmh 30.56 in1034.9 mb 0.00 in0.0 mm 0.00 in0.0 mm 0.00 in0.0 mm
06:05 PM 13.9°F-10.1°C 7.5°F-13.6°C 79% 4.0 mph WNW6.4 kmh WNW 7.0 mph11.3 kmh 30.56 in1034.9 mb 0.00 in0.0 mm 0.00 in0.0 mm 0.00 in0.0 mm
06:07 PM 13.9°F-10.1°C 7.5°F-13.6°C 79% 5.0 mph N8.0 kmh N 7.0 mph11.3 kmh 30.56 in1034.9 mb 0.00 in0.0 mm 0.00 in0.0 mm 0.00 in0.0 mm
06:09 PM 13.9°F-10.1°C 7.5°F-13.6°C 79% 2.0 mph NW3.2 kmh NW 7.0 mph11.3 kmh 30.57 in1035.2 mb 0.00 in0.0 mm 0.00 in0.0 mm 0.00 in0.0 mm
06:11 PM 13.9°F-10.1°C 7.5°F-13.6°C 79% 2.0 mph NW3.2 kmh NW 7.0 mph11.3 kmh 30.57 in1035.2 mb 0.00 in0.0 mm 0.00 in0.0 mm 0.00 in0.0 mm
06:13 PM 13.9°F-10.1°C 7.8°F-13.4°C 80% 2.0 mph N3.2 kmh N 7.0 mph11.3 kmh 30.57 in1035.2 mb 0.00 in0.0 mm 0.00 in0.0 mm 0.00 in0.0 mm
06:15 PM 13.9°F-10.1°C 7.8°F-13.4°C 80% 2.0 mph N3.2 kmh N 7.0 mph11.3 kmh 30.57 in1035.2 mb 0.00 in0.0 mm 0.00 in0.0 mm 0.00 in0.0 mm
06:17 PM 13.8°F-10.1°C 7.7°F-13.5°C 80% 3.0 mph NE4.8 kmh NE 7.0 mph11.3 kmh 30.57 in1035.2 mb 0.00 in0.0 mm 0.00 in0.0 mm 0.00 in0.0 mm
06:19 PM 13.8°F-10.1°C 7.4°F-13.7°C 79% 3.0 mph NNW4.8 kmh NNW 7.0 mph11.3 kmh 30.57 in1035.2 mb 0.00 in0.0 mm 0.00 in0.0 mm 0.00 in0.0 mm
06:21 PM 13.8°F-10.1°C 7.7°F-13.5°C 80% 2.0 mph NNW3.2 kmh NNW 7.0 mph11.3 kmh 30.57 in1035.2 mb 0.00 in0.0 mm 0.00 in0.0 mm 0.00 in0.0 mm
06:23 PM 13.8°F-10.1°C 7.7°F-13.5°C 80% 2.0 mph NNE3.2 kmh NNE 7.0 mph11.3 kmh 30.57 in1035.2 mb 0.00 in0.0 mm 0.00 in0.0 mm 0.00 in0.0 mm
06:25 PM 13.8°F-10.1°C 7.7°F-13.5°C 80% 3.0 mph NNW4.8 kmh NNW 6.0 mph9.7 kmh 30.57 in1035.2 mb 0.00 in0.0 mm 0.00 in0.0 mm 0.00 in0.0 mm
06:27 PM 13.8°F-10.1°C 7.7°F-13.5°C 80% 2.0 mph NNW3.2 kmh NNW 6.0 mph9.7 kmh 30.58 in1035.6 mb 0.00 in0.0 mm 0.00 in0.0 mm 0.00 in0.0 mm
06:29 PM 13.7°F-10.2°C 7.6°F-13.6°C 80% 2.0 mph NNW3.2 kmh NNW 6.0 mph9.7 kmh 30.58 in1035.6 mb 0.00 in0.0 mm 0.00 in0.0 mm 0.00 in0.0 mm
06:31 PM 13.7°F-10.2°C 7.6°F-13.6°C 80% 2.0 mph NNW3.2 kmh NNW 6.0 mph9.7 kmh 30.58 in1035.6 mb 0.00 in0.0 mm 0.00 in0.0 mm 0.00 in0.0 mm
06:33 PM 13.7°F-10.2°C 7.6°F-13.6°C 80% 1.0 mph NNW1.6 kmh NNW 6.0 mph9.7 kmh 30.58 in1035.6 mb 0.00 in0.0 mm 0.00 in0.0 mm 0.00 in0.0 mm
06:35 PM 13.7°F-10.2°C 7.6°F-13.6°C 80% 1.0 mph NNE1.6 kmh NNE 4.0 mph6.4 kmh 30.58 in1035.6 mb 0.00 in0.0 mm 0.00 in0.0 mm 0.00 in0.0 mm
06:37 PM 13.6°F-10.2°C 7.5°F-13.6°C 80% 4.0 mph NW6.4 kmh NW 4.0 mph6.4 kmh 30.58 in1035.6 mb 0.00 in0.0 mm 0.00 in0.0 mm 0.00 in0.0 mm
06:39 PM 13.6°F-10.2°C 7.2°F-13.8°C 79% 2.0 mph NNW3.2 kmh NNW 4.0 mph6.4 kmh 30.58 in1035.6 mb 0.00 in0.0 mm 0.00 in0.0 mm 0.00 in0.0 mm
06:41 PM 13.6°F-10.2°C 7.2°F-13.8°C 79% 3.0 mph NW4.8 kmh NW 4.0 mph6.4 kmh 30.58 in1035.6 mb 0.00 in0.0 mm 0.00 in0.0 mm 0.00 in0.0 mm
06:43 PM 13.6°F-10.2°C 7.2°F-13.8°C 79% 3.0 mph NNW4.8 kmh NNW 4.0 mph6.4 kmh 30.59 in1035.9 mb 0.00 in0.0 mm 0.00 in0.0 mm 0.00 in0.0 mm
06:45 PM 13.5°F-10.3°C 7.1°F-13.8°C 79% 2.0 mph NNW3.2 kmh NNW 4.0 mph6.4 kmh 30.59 in1035.9 mb 0.00 in0.0 mm 0.00 in0.0 mm 0.00 in0.0 mm
06:47 PM 13.5°F-10.3°C 7.1°F-13.8°C 79% 1.0 mph NNW1.6 kmh NNW 4.0 mph6.4 kmh 30.59 in1035.9 mb 0.00 in0.0 mm 0.00 in0.0 mm 0.00 in0.0 mm
06:49 PM 13.4°F-10.3°C 7.0°F-13.9°C 79% 2.0 mph NNW3.2 kmh NNW 4.0 mph6.4 kmh 30.59 in1035.9 mb 0.00 in0.0 mm 0.00 in0.0 mm 0.00 in0.0 mm
06:51 PM 13.4°F-10.3°C 7.3°F-13.7°C 80% 1.0 mph NNW1.6 kmh NNW 4.0 mph6.4 kmh 30.59 in1035.9 mb 0.00 in0.0 mm 0.00 in0.0 mm 0.00 in0.0 mm
06:53 PM 13.3°F-10.4°C 7.2°F-13.8°C 80% 2.0 mph N3.2 kmh N 4.0 mph6.4 kmh 30.59 in1035.9 mb 0.00 in0.0 mm 0.00 in0.0 mm 0.00 in0.0 mm
06:55 PM 13.3°F-10.4°C 7.2°F-13.8°C 80% 2.0 mph N3.2 kmh N 4.0 mph6.4 kmh 30.59 in1035.9 mb 0.00 in0.0 mm 0.00 in0.0 mm 0.00 in0.0 mm
06:57 PM 13.2°F-10.4°C 6.8°F-14.0°C 79% 1.0 mph NNW1.6 kmh NNW 4.0 mph6.4 kmh 30.59 in1035.9 mb 0.00 in0.0 mm 0.00 in0.0 mm 0.00 in0.0 mm
06:59 PM 13.2°F-10.4°C 7.1°F-13.8°C 80% 2.0 mph NNW3.2 kmh NNW 4.0 mph6.4 kmh 30.59 in1035.9 mb 0.00 in0.0 mm 0.00 in0.0 mm 0.00 in0.0 mm
07:01 PM 13.1°F-10.5°C 7.0°F-13.9°C 80% 1.0 mph NNW1.6 kmh NNW 4.0 mph6.4 kmh 30.59 in1035.9 mb 0.00 in0.0 mm 0.00 in0.0 mm 0.00 in0.0 mm
07:03 PM 13.1°F-10.5°C 7.0°F-13.9°C 80% 1.0 mph NNW1.6 kmh NNW 4.0 mph6.4 kmh 30.59 in1035.9 mb 0.00 in0.0 mm 0.00 in0.0 mm 0.00 in0.0 mm
07:05 PM 13.0°F-10.6°C 6.9°F-13.9°C 80% 1.0 mph NNW1.6 kmh NNW 3.0 mph4.8 kmh 30.59 in1035.9 mb 0.00 in0.0 mm 0.00 in0.0 mm 0.00 in0.0 mm
07:07 PM 13.0°F-10.6°C 6.9°F-13.9°C 80% 2.0 mph NNW3.2 kmh NNW 3.0 mph4.8 kmh 30.60 in1036.2 mb 0.00 in0.0 mm 0.00 in0.0 mm 0.00 in0.0 mm
07:09 PM 12.9°F-10.6°C 6.8°F-14.0°C 80% 2.0 mph N3.2 kmh N 3.0 mph4.8 kmh 30.60 in1036.2 mb 0.00 in0.0 mm 0.00 in0.0 mm 0.00 in0.0 mm
07:11 PM 12.9°F-10.6°C 6.8°F-14.0°C 80% 2.0 mph N3.2 kmh N 3.0 mph4.8 kmh 30.60 in1036.2 mb 0.00 in0.0 mm 0.00 in0.0 mm 0.00 in0.0 mm
07:13 PM 12.9°F-10.6°C 6.8°F-14.0°C 80% 2.0 mph N3.2 kmh N 3.0 mph4.8 kmh 30.60 in1036.2 mb 0.00 in0.0 mm 0.00 in0.0 mm 0.00 in0.0 mm
07:15 PM 12.9°F-10.6°C 6.8°F-14.0°C 80% 2.0 mph N3.2 kmh N 4.0 mph6.4 kmh 30.60 in1036.2 mb 0.00 in0.0 mm 0.00 in0.0 mm 0.00 in0.0 mm
07:17 PM 12.9°F-10.6°C 6.5°F-14.2°C 79% 2.0 mph N3.2 kmh N 4.0 mph6.4 kmh 30.61 in1036.6 mb 0.00 in0.0 mm 0.00 in0.0 mm 0.00 in0.0 mm
07:19 PM 12.9°F-10.6°C 6.8°F-14.0°C 80% 2.0 mph NW3.2 kmh NW 4.0 mph6.4 kmh 30.61 in1036.6 mb 0.00 in0.0 mm 0.00 in0.0 mm 0.00 in0.0 mm
07:21 PM 12.9°F-10.6°C 6.5°F-14.2°C 79% 1.0 mph NNW1.6 kmh NNW 4.0 mph6.4 kmh 30.61 in1036.6 mb 0.00 in0.0 mm 0.00 in0.0 mm 0.00 in0.0 mm
07:23 PM 12.9°F-10.6°C 6.5°F-14.2°C 79% 1.0 mph NNE1.6 kmh NNE 4.0 mph6.4 kmh 30.61 in1036.6 mb 0.00 in0.0 mm 0.00 in0.0 mm 0.00 in0.0 mm
07:25 PM 12.9°F-10.6°C 6.5°F-14.2°C 79% 1.0 mph NNE1.6 kmh NNE 4.0 mph6.4 kmh 30.61 in1036.6 mb 0.00 in0.0 mm 0.00 in0.0 mm 0.00 in0.0 mm
07:27 PM 12.9°F-10.6°C 6.5°F-14.2°C 79% 1.0 mph NNW1.6 kmh NNW 5.0 mph8.0 kmh 30.61 in1036.6 mb 0.00 in0.0 mm 0.00 in0.0 mm 0.00 in0.0 mm
07:29 PM 12.9°F-10.6°C 6.5°F-14.2°C 79% 1.0 mph NNW1.6 kmh NNW 5.0 mph8.0 kmh 30.61 in1036.6 mb 0.00 in0.0 mm 0.00 in0.0 mm 0.00 in0.0 mm
07:31 PM 12.9°F-10.6°C 6.5°F-14.2°C 79% 1.0 mph NNW1.6 kmh NNW 5.0 mph8.0 kmh 30.61 in1036.6 mb 0.00 in0.0 mm 0.00 in0.0 mm 0.00 in0.0 mm
07:33 PM 12.8°F-10.7°C 6.4°F-14.2°C 79% 1.0 mph NNW1.6 kmh NNW 5.0 mph8.0 kmh 30.61 in1036.6 mb 0.00 in0.0 mm 0.00 in0.0 mm 0.00 in0.0 mm
07:35 PM 12.8°F-10.7°C 6.7°F-14.1°C 80% 2.0 mph NNW3.2 kmh NNW 5.0 mph8.0 kmh 30.61 in1036.6 mb 0.00 in0.0 mm 0.00 in0.0 mm 0.00 in0.0 mm
07:37 PM 12.7°F-10.7°C 6.6°F-14.1°C 80% 2.0 mph NNW3.2 kmh NNW 5.0 mph8.0 kmh 30.61 in1036.6 mb 0.00 in0.0 mm 0.00 in0.0 mm 0.00 in0.0 mm
07:39 PM 12.7°F-10.7°C 6.6°F-14.1°C 80% 1.0 mph NNW1.6 kmh NNW 5.0 mph8.0 kmh 30.61 in1036.6 mb 0.00 in0.0 mm 0.00 in0.0 mm 0.00 in0.0 mm
07:41 PM 12.6°F-10.8°C 6.2°F-14.3°C 79% 2.0 mph NNW3.2 kmh NNW 5.0 mph8.0 kmh 30.61 in1036.6 mb 0.00 in0.0 mm 0.00 in0.0 mm 0.00 in0.0 mm
07:43 PM 12.6°F-10.8°C 6.5°F-14.2°C 80% 1.0 mph NNW1.6 kmh NNW 5.0 mph8.0 kmh 30.62 in1036.9 mb 0.00 in0.0 mm 0.00 in0.0 mm 0.00 in0.0 mm
07:45 PM 12.5°F-10.8°C 6.4°F-14.2°C 80% 1.0 mph NNW1.6 kmh NNW 5.0 mph8.0 kmh 30.62 in1036.9 mb 0.00 in0.0 mm 0.00 in0.0 mm 0.00 in0.0 mm
07:47 PM 12.5°F-10.8°C 6.4°F-14.2°C 80% 1.0 mph NNW1.6 kmh NNW 2.0 mph3.2 kmh 30.62 in1036.9 mb 0.00 in0.0 mm 0.00 in0.0 mm 0.00 in0.0 mm
07:49 PM 12.4°F-10.9°C 6.3°F-14.3°C 80% 1.0 mph NNW1.6 kmh NNW 2.0 mph3.2 kmh 30.62 in1036.9 mb 0.00 in0.0 mm 0.00 in0.0 mm 0.00 in0.0 mm
07:51 PM 12.3°F-10.9°C 6.2°F-14.3°C 80% 1.0 mph NNW1.6 kmh NNW 2.0 mph3.2 kmh 30.62 in1036.9 mb 0.00 in0.0 mm 0.00 in0.0 mm 0.00 in0.0 mm
07:53 PM 12.3°F-10.9°C 6.2°F-14.3°C 80% 2.0 mph NNW3.2 kmh NNW 2.0 mph3.2 kmh 30.62 in1036.9 mb 0.00 in0.0 mm 0.00 in0.0 mm 0.00 in0.0 mm
07:55 PM 12.3°F-10.9°C 6.2°F-14.3°C 80% 2.0 mph NNW3.2 kmh NNW 2.0 mph3.2 kmh 30.62 in1036.9 mb 0.00 in0.0 mm 0.00 in0.0 mm 0.00 in0.0 mm
07:57 PM 12.3°F-10.9°C 5.9°F-14.5°C 79% 1.0 mph NNW1.6 kmh NNW 5.0 mph8.0 kmh 30.62 in1036.9 mb 0.00 in0.0 mm 0.00 in0.0 mm 0.00 in0.0 mm
07:59 PM 12.3°F-10.9°C 5.9°F-14.5°C 79% 2.0 mph NNW3.2 kmh NNW 5.0 mph8.0 kmh 30.62 in1036.9 mb 0.00 in0.0 mm 0.00 in0.0 mm 0.00 in0.0 mm
08:01 PM 12.3°F-10.9°C 6.2°F-14.3°C 80% 2.0 mph NNW3.2 kmh NNW 5.0 mph8.0 kmh 30.62 in1036.9 mb 0.00 in0.0 mm 0.00 in0.0 mm 0.00 in0.0 mm
08:03 PM 12.3°F-10.9°C 5.9°F-14.5°C 79% 2.0 mph NNW3.2 kmh NNW 5.0 mph8.0 kmh 30.62 in1036.9 mb 0.00 in0.0 mm 0.00 in0.0 mm 0.00 in0.0 mm
08:05 PM 12.3°F-10.9°C 6.2°F-14.3°C 80% 2.0 mph NNW3.2 kmh NNW 5.0 mph8.0 kmh 30.62 in1036.9 mb 0.00 in0.0 mm 0.00 in0.0 mm 0.00 in0.0 mm
08:07 PM 12.3°F-10.9°C 6.2°F-14.3°C 80% 2.0 mph NNW3.2 kmh NNW 5.0 mph8.0 kmh 30.62 in1036.9 mb 0.00 in0.0 mm 0.00 in0.0 mm 0.00 in0.0 mm
08:09 PM 12.2°F-11.0°C 6.1°F-14.4°C 80% 1.0 mph NNW1.6 kmh NNW 5.0 mph8.0 kmh 30.63 in1037.3 mb 0.00 in0.0 mm 0.00 in0.0 mm 0.00 in0.0 mm
08:11 PM 12.2°F-11.0°C 5.8°F-14.6°C 79% 2.0 mph NW3.2 kmh NW 5.0 mph8.0 kmh 30.62 in1036.9 mb 0.00 in0.0 mm 0.00 in0.0 mm 0.00 in0.0 mm
08:13 PM 12.2°F-11.0°C 5.8°F-14.6°C 79% 1.0 mph NW1.6 kmh NW 5.0 mph8.0 kmh 30.63 in1037.3 mb 0.00 in0.0 mm 0.00 in0.0 mm 0.00 in0.0 mm
08:15 PM 12.2°F-11.0°C 5.8°F-14.6°C 79% 1.0 mph NW1.6 kmh NW 5.0 mph8.0 kmh 30.63 in1037.3 mb 0.00 in0.0 mm 0.00 in0.0 mm 0.00 in0.0 mm
08:17 PM 12.1°F-11.1°C 5.7°F-14.6°C 79% 2.0 mph NW3.2 kmh NW 4.0 mph6.4 kmh 30.63 in1037.3 mb 0.00 in0.0 mm 0.00 in0.0 mm 0.00 in0.0 mm
08:19 PM 12.1°F-11.1°C 6.0°F-14.4°C 80% 1.0 mph NW1.6 kmh NW 4.0 mph6.4 kmh 30.63 in1037.3 mb 0.00 in0.0 mm 0.00 in0.0 mm 0.00 in0.0 mm
08:21 PM 11.9°F-11.2°C 5.5°F-14.7°C 79% 1.0 mph NW1.6 kmh NW 4.0 mph6.4 kmh 30.63 in1037.3 mb 0.00 in0.0 mm 0.00 in0.0 mm 0.00 in0.0 mm
08:23 PM 11.9°F-11.2°C 5.5°F-14.7°C 79% 1.0 mph NW1.6 kmh NW 4.0 mph6.4 kmh 30.63 in1037.3 mb 0.00 in0.0 mm 0.00 in0.0 mm 0.00 in0.0 mm
08:25 PM 11.8°F-11.2°C 5.7°F-14.6°C 80% 1.0 mph NW1.6 kmh NW 4.0 mph6.4 kmh 30.63 in1037.3 mb 0.00 in0.0 mm 0.00 in0.0 mm 0.00 in0.0 mm
08:27 PM 11.7°F-11.3°C 5.6°F-14.7°C 80% 2.0 mph NW3.2 kmh NW 2.0 mph3.2 kmh 30.63 in1037.3 mb 0.00 in0.0 mm 0.00 in0.0 mm 0.00 in0.0 mm
08:29 PM 11.6°F-11.3°C 5.5°F-14.7°C 80% 2.0 mph NW3.2 kmh NW 3.0 mph4.8 kmh 30.64 in1037.6 mb 0.00 in0.0 mm 0.00 in0.0 mm 0.00 in0.0 mm
08:31 PM 11.6°F-11.3°C 5.5°F-14.7°C 80% 2.0 mph NW3.2 kmh NW 3.0 mph4.8 kmh 30.64 in1037.6 mb 0.00 in0.0 mm 0.00 in0.0 mm 0.00 in0.0 mm
08:33 PM 11.6°F-11.3°C 5.5°F-14.7°C 80% 2.0 mph NW3.2 kmh NW 3.0 mph4.8 kmh 30.64 in1037.6 mb 0.00 in0.0 mm 0.00 in0.0 mm 0.00 in0.0 mm
08:35 PM 11.6°F-11.3°C 5.5°F-14.7°C 80% 1.0 mph NW1.6 kmh NW 3.0 mph4.8 kmh 30.64 in1037.6 mb 0.00 in0.0 mm 0.00 in0.0 mm 0.00 in0.0 mm
08:37 PM 11.6°F-11.3°C 5.5°F-14.7°C 80% 2.0 mph NW3.2 kmh NW 3.0 mph4.8 kmh 30.64 in1037.6 mb 0.00 in0.0 mm 0.00 in0.0 mm 0.00 in0.0 mm
08:39 PM 11.6°F-11.3°C 5.5°F-14.7°C 80% 1.0 mph NW1.6 kmh NW 3.0 mph4.8 kmh 30.64 in1037.6 mb 0.00 in0.0 mm 0.00 in0.0 mm 0.00 in0.0 mm
08:41 PM 11.6°F-11.3°C 5.5°F-14.7°C 80% 1.0 mph NW1.6 kmh NW 3.0 mph4.8 kmh 30.64 in1037.6 mb 0.00 in0.0 mm 0.00 in0.0 mm 0.00 in0.0 mm
08:43 PM 11.6°F-11.3°C 5.8°F-14.6°C 81% Calm Calm 3.0 mph4.8 kmh 30.64 in1037.6 mb 0.00 in0.0 mm 0.00 in0.0 mm 0.00 in0.0 mm
08:45 PM 11.6°F-11.3°C 5.8°F-14.6°C 81% 2.0 mph NW3.2 kmh NW 3.0 mph4.8 kmh 30.64 in1037.6 mb 0.00 in0.0 mm 0.00 in0.0 mm 0.00 in0.0 mm
08:47 PM 11.6°F-11.3°C 5.8°F-14.6°C 81% 1.0 mph NW1.6 kmh NW 3.0 mph4.8 kmh 30.64 in1037.6 mb 0.00 in0.0 mm 0.00 in0.0 mm 0.00 in0.0 mm
08:49 PM 11.7°F-11.3°C 5.9°F-14.5°C 81% 1.0 mph NW1.6 kmh NW 2.0 mph3.2 kmh 30.64 in1037.6 mb 0.00 in0.0 mm 0.00 in0.0 mm 0.00 in0.0 mm
08:51 PM 11.7°F-11.3°C 5.9°F-14.5°C 81% 1.0 mph NW1.6 kmh NW 2.0 mph3.2 kmh 30.64 in1037.6 mb 0.00 in0.0 mm 0.00 in0.0 mm 0.00 in0.0 mm
08:53 PM 11.7°F-11.3°C 5.9°F-14.5°C 81% 1.0 mph NW1.6 kmh NW 2.0 mph3.2 kmh 30.65 in1037.9 mb 0.00 in0.0 mm 0.00 in0.0 mm 0.00 in0.0 mm
08:55 PM 11.7°F-11.3°C 5.9°F-14.5°C 81% 1.0 mph NNW1.6 kmh NNW 2.0 mph3.2 kmh 30.65 in1037.9 mb 0.00 in0.0 mm 0.00 in0.0 mm 0.00 in0.0 mm
08:57 PM 11.8°F-11.2°C 6.0°F-14.4°C 81% 2.0 mph NNW3.2 kmh NNW 2.0 mph3.2 kmh 30.65 in1037.9 mb 0.00 in0.0 mm 0.00 in0.0 mm 0.00 in0.0 mm
08:59 PM 11.8°F-11.2°C 6.0°F-14.4°C 81% 1.0 mph NNE1.6 kmh NNE 2.0 mph3.2 kmh 30.65 in1037.9 mb 0.00 in0.0 mm 0.00 in0.0 mm 0.00 in0.0 mm
09:01 PM 11.8°F-11.2°C 6.0°F-14.4°C 81% 1.0 mph NNE1.6 kmh NNE 2.0 mph3.2 kmh 30.65 in1037.9 mb 0.00 in0.0 mm 0.00 in0.0 mm 0.00 in0.0 mm
09:03 PM 11.8°F-11.2°C 6.0°F-14.4°C 81% Calm Calm 2.0 mph3.2 kmh 30.65 in1037.9 mb 0.00 in0.0 mm 0.00 in0.0 mm 0.00 in0.0 mm
09:05 PM 11.9°F-11.2°C 6.1°F-14.4°C 81% Calm Calm 2.0 mph3.2 kmh 30.65 in1037.9 mb 0.00 in0.0 mm 0.00 in0.0 mm 0.00 in0.0 mm
09:07 PM 11.9°F-11.2°C 6.1°F-14.4°C 81% 1.0 mph NNE1.6 kmh NNE 1.0 mph1.6 kmh 30.65 in1037.9 mb 0.00 in0.0 mm 0.00 in0.0 mm 0.00 in0.0 mm
09:09 PM 11.8°F-11.2°C 6.3°F-14.3°C 82% 2.0 mph NNE3.2 kmh NNE 2.0 mph3.2 kmh 30.65 in1037.9 mb 0.00 in0.0 mm 0.00 in0.0 mm 0.00 in0.0 mm
09:11 PM 11.9°F-11.2°C 6.4°F-14.2°C 82% Calm Calm 2.0 mph3.2 kmh 30.65 in1037.9 mb 0.00 in0.0 mm 0.00 in0.0 mm 0.00 in0.0 mm
09:13 PM 11.8°F-11.2°C 6.3°F-14.3°C 82% 1.0 mph NNE1.6 kmh NNE 1.0 mph1.6 kmh 30.65 in1037.9 mb 0.00 in0.0 mm 0.00 in0.0 mm 0.00 in0.0 mm
09:15 PM 11.8°F-11.2°C 6.3°F-14.3°C 82% Calm Calm 1.0 mph1.6 kmh 30.65 in1037.9 mb 0.00 in0.0 mm 0.00 in0.0 mm 0.00 in0.0 mm
09:17 PM 11.9°F-11.2°C 6.4°F-14.2°C 82% Calm Calm 1.0 mph1.6 kmh 30.66 in1038.3 mb 0.00 in0.0 mm 0.00 in0.0 mm 0.00 in0.0 mm
09:19 PM 11.9°F-11.2°C 6.4°F-14.2°C 82% Calm Calm 1.0 mph1.6 kmh 30.66 in1038.3 mb 0.00 in0.0 mm 0.00 in0.0 mm 0.00 in0.0 mm
09:21 PM 11.8°F-11.2°C 6.3°F-14.3°C 82% Calm Calm 1.0 mph1.6 kmh 30.66 in1038.3 mb 0.00 in0.0 mm 0.00 in0.0 mm 0.00 in0.0 mm
09:23 PM 11.8°F-11.2°C 6.3°F-14.3°C 82% 1.0 mph NNE1.6 kmh NNE 2.0 mph3.2 kmh 30.66 in1038.3 mb 0.00 in0.0 mm 0.00 in0.0 mm 0.00 in0.0 mm
09:25 PM 11.9°F-11.2°C 6.4°F-14.2°C 82% 1.0 mph NNE1.6 kmh NNE 2.0 mph3.2 kmh 30.66 in1038.3 mb 0.00 in0.0 mm 0.00 in0.0 mm 0.00 in0.0 mm
09:27 PM 11.8°F-11.2°C 6.3°F-14.3°C 82% Calm Calm 2.0 mph3.2 kmh 30.66 in1038.3 mb 0.00 in0.0 mm 0.00 in0.0 mm 0.00 in0.0 mm
09:29 PM 11.8°F-11.2°C 6.3°F-14.3°C 82% 1.0 mph NNE1.6 kmh NNE 2.0 mph3.2 kmh 30.66 in1038.3 mb 0.00 in0.0 mm 0.00 in0.0 mm 0.00 in0.0 mm
09:31 PM 11.9°F-11.2°C 6.4°F-14.2°C 82% 1.0 mph NNE1.6 kmh NNE 2.0 mph3.2 kmh 30.66 in1038.3 mb 0.00 in0.0 mm 0.00 in0.0 mm 0.00 in0.0 mm
09:33 PM 11.9°F-11.2°C 6.4°F-14.2°C 82% 1.0 mph NNE1.6 kmh NNE 2.0 mph3.2 kmh 30.66 in1038.3 mb 0.00 in0.0 mm 0.00 in0.0 mm 0.00 in0.0 mm
09:35 PM 11.9°F-11.2°C 6.4°F-14.2°C 82% 1.0 mph NNE1.6 kmh NNE 2.0 mph3.2 kmh 30.66 in1038.3 mb 0.00 in0.0 mm 0.00 in0.0 mm 0.00 in0.0 mm
09:37 PM 11.9°F-11.2°C 6.4°F-14.2°C 82% 1.0 mph NNE1.6 kmh NNE 2.0 mph3.2 kmh 30.66 in1038.3 mb 0.00 in0.0 mm 0.00 in0.0 mm 0.00 in0.0 mm
09:39 PM 11.9°F-11.2°C 6.4°F-14.2°C 82% 1.0 mph NNE1.6 kmh NNE 2.0 mph3.2 kmh 30.66 in1038.3 mb 0.00 in0.0 mm 0.00 in0.0 mm 0.00 in0.0 mm
09:41 PM 11.9°F-11.2°C 6.4°F-14.2°C 82% Calm Calm 2.0 mph3.2 kmh 30.66 in1038.3 mb 0.00 in0.0 mm 0.00 in0.0 mm 0.00 in0.0 mm
09:43 PM 11.9°F-11.2°C 6.4°F-14.2°C 82% 1.0 mph NNE1.6 kmh NNE 2.0 mph3.2 kmh 30.66 in1038.3 mb 0.00 in0.0 mm 0.00 in0.0 mm 0.00 in0.0 mm
09:45 PM 11.9°F-11.2°C 6.7°F-14.1°C 83% 1.0 mph NNE1.6 kmh NNE 2.0 mph3.2 kmh 30.66 in1038.3 mb 0.00 in0.0 mm 0.00 in0.0 mm 0.00 in0.0 mm
09:47 PM 11.8°F-11.2°C 6.3°F-14.3°C 82% 1.0 mph NNE1.6 kmh NNE 2.0 mph3.2 kmh 30.66 in1038.3 mb 0.00 in0.0 mm 0.00 in0.0 mm 0.00 in0.0 mm
09:49 PM 11.8°F-11.2°C 6.3°F-14.3°C 82% Calm Calm 2.0 mph3.2 kmh 30.66 in1038.3 mb 0.00 in0.0 mm 0.00 in0.0 mm 0.00 in0.0 mm
09:51 PM 11.8°F-11.2°C 6.3°F-14.3°C 82% 1.0 mph NNW1.6 kmh NNW 2.0 mph3.2 kmh 30.66 in1038.3 mb 0.00 in0.0 mm 0.00 in0.0 mm 0.00 in0.0 mm
09:53 PM 11.8°F-11.2°C 6.3°F-14.3°C 82% Calm Calm 2.0 mph3.2 kmh 30.66 in1038.3 mb 0.00 in0.0 mm 0.00 in0.0 mm 0.00 in0.0 mm
09:55 PM 11.9°F-11.2°C 6.4°F-14.2°C 82% 2.0 mph NNW3.2 kmh NNW 2.0 mph3.2 kmh 30.66 in1038.3 mb 0.00 in0.0 mm 0.00 in0.0 mm 0.00 in0.0 mm
09:57 PM 11.9°F-11.2°C 6.4°F-14.2°C 82% 1.0 mph NNW1.6 kmh NNW 2.0 mph3.2 kmh 30.66 in1038.3 mb 0.00 in0.0 mm 0.00 in0.0 mm 0.00 in0.0 mm
09:59 PM 11.8°F-11.2°C 6.3°F-14.3°C 82% Calm Calm 2.0 mph3.2 kmh 30.66 in1038.3 mb 0.00 in0.0 mm 0.00 in0.0 mm 0.00 in0.0 mm
10:01 PM 11.9°F-11.2°C 6.4°F-14.2°C 82% 1.0 mph NNW1.6 kmh NNW 2.0 mph3.2 kmh 30.66 in1038.3 mb 0.00 in0.0 mm 0.00 in0.0 mm 0.00 in0.0 mm
10:03 PM 11.9°F-11.2°C 6.4°F-14.2°C 82% 1.0 mph NNW1.6 kmh NNW 2.0 mph3.2 kmh 30.66 in1038.3 mb 0.00 in0.0 mm 0.00 in0.0 mm 0.00 in0.0 mm
10:05 PM 11.9°F-11.2°C 6.4°F-14.2°C 82% Calm Calm 2.0 mph3.2 kmh 30.66 in1038.3 mb 0.00 in0.0 mm 0.00 in0.0 mm 0.00 in0.0 mm
10:07 PM 11.9°F-11.2°C 6.7°F-14.1°C 83% Calm Calm -- 30.66 in1038.3 mb 0.00 in0.0 mm 0.00 in0.0 mm 0.00 in0.0 mm
10:09 PM 11.8°F-11.2°C 6.6°F-14.1°C 83% Calm Calm 1.0 mph1.6 kmh 30.66 in1038.3 mb 0.00 in0.0 mm 0.00 in0.0 mm 0.00 in0.0 mm
10:11 PM 11.8°F-11.2°C 6.6°F-14.1°C 83% Calm Calm 1.0 mph1.6 kmh 30.66 in1038.3 mb 0.00 in0.0 mm 0.00 in0.0 mm 0.00 in0.0 mm
10:13 PM 11.8°F-11.2°C 6.6°F-14.1°C 83% 1.0 mph NNW1.6 kmh NNW 1.0 mph1.6 kmh 30.66 in1038.3 mb 0.00 in0.0 mm 0.00 in0.0 mm 0.00 in0.0 mm
10:15 PM 11.8°F-11.2°C 6.6°F-14.1°C 83% Calm Calm 1.0 mph1.6 kmh 30.66 in1038.3 mb 0.00 in0.0 mm 0.00 in0.0 mm 0.00 in0.0 mm
10:17 PM 11.8°F-11.2°C 6.6°F-14.1°C 83% Calm Calm 1.0 mph1.6 kmh 30.66 in1038.3 mb 0.00 in0.0 mm 0.00 in0.0 mm 0.00 in0.0 mm
10:19 PM 11.8°F-11.2°C 6.6°F-14.1°C 83% 1.0 mph NNW1.6 kmh NNW 1.0 mph1.6 kmh 30.66 in1038.3 mb 0.00 in0.0 mm 0.00 in0.0 mm 0.00 in0.0 mm
10:21 PM 11.8°F-11.2°C 6.6°F-14.1°C 83% 2.0 mph NNW3.2 kmh NNW 2.0 mph3.2 kmh 30.66 in1038.3 mb 0.00 in0.0 mm 0.00 in0.0 mm 0.00 in0.0 mm
10:23 PM 11.7°F-11.3°C 6.5°F-14.2°C 83% 2.0 mph NNW3.2 kmh NNW 2.0 mph3.2 kmh 30.66 in1038.3 mb 0.00 in0.0 mm 0.00 in0.0 mm 0.00 in0.0 mm
10:25 PM 11.7°F-11.3°C 6.2°F-14.3°C 82% 2.0 mph NNW3.2 kmh NNW 2.0 mph3.2 kmh 30.66 in1038.3 mb 0.00 in0.0 mm 0.00 in0.0 mm 0.00 in0.0 mm
10:27 PM 11.8°F-11.2°C 6.3°F-14.3°C 82% Calm Calm 2.0 mph3.2 kmh 30.66 in1038.3 mb 0.00 in0.0 mm 0.00 in0.0 mm 0.00 in0.0 mm
10:29 PM 11.8°F-11.2°C 6.3°F-14.3°C 82% Calm Calm -- 30.66 in1038.3 mb 0.00 in0.0 mm 0.00 in0.0 mm 0.00 in0.0 mm
10:31 PM 11.8°F-11.2°C 6.3°F-14.3°C 82% Calm Calm -- 30.66 in1038.3 mb 0.00 in0.0 mm 0.00 in0.0 mm 0.00 in0.0 mm
10:33 PM 11.8°F-11.2°C 6.3°F-14.3°C 82% Calm Calm -- 30.66 in1038.3 mb 0.00 in0.0 mm 0.00 in0.0 mm 0.00 in0.0 mm
10:35 PM 11.8°F-11.2°C 6.3°F-14.3°C 82% Calm Calm -- 30.66 in1038.3 mb 0.00 in0.0 mm 0.00 in0.0 mm 0.00 in0.0 mm
10:37 PM 11.8°F-11.2°C 6.3°F-14.3°C 82% Calm Calm -- 30.66 in1038.3 mb 0.00 in0.0 mm 0.00 in0.0 mm 0.00 in0.0 mm
10:39 PM 11.8°F-11.2°C 6.3°F-14.3°C 82% Calm Calm -- 30.66 in1038.3 mb 0.00 in0.0 mm 0.00 in0.0 mm 0.00 in0.0 mm
10:41 PM 11.8°F-11.2°C 6.6°F-14.1°C 83% Calm Calm -- 30.67 in1038.6 mb 0.00 in0.0 mm 0.00 in0.0 mm 0.00 in0.0 mm
10:43 PM 11.7°F-11.3°C 6.5°F-14.2°C 83% Calm Calm -- 30.67 in1038.6 mb 0.00 in0.0 mm 0.00 in0.0 mm 0.00 in0.0 mm
10:45 PM 11.7°F-11.3°C 6.7°F-14.1°C 84% Calm Calm -- 30.67 in1038.6 mb 0.00 in0.0 mm 0.00 in0.0 mm 0.00 in0.0 mm
10:47 PM 11.7°F-11.3°C 6.5°F-14.2°C 83% Calm Calm -- 30.67 in1038.6 mb 0.00 in0.0 mm 0.00 in0.0 mm 0.00 in0.0 mm
10:49 PM 11.6°F-11.3°C 6.4°F-14.2°C 83% Calm Calm -- 30.67 in1038.6 mb 0.00 in0.0 mm 0.00 in0.0 mm 0.00 in0.0 mm
10:51 PM 11.6°F-11.3°C 6.4°F-14.2°C 83% Calm Calm -- 30.67 in1038.6 mb 0.00 in0.0 mm 0.00 in0.0 mm 0.00 in0.0 mm
10:53 PM 11.6°F-11.3°C 6.4°F-14.2°C 83% Calm Calm -- 30.67 in1038.6 mb 0.00 in0.0 mm 0.00 in0.0 mm 0.00 in0.0 mm
10:55 PM 11.5°F-11.4°C 6.3°F-14.3°C 83% Calm Calm -- 30.67 in1038.6 mb 0.00 in0.0 mm 0.00 in0.0 mm 0.00 in0.0 mm
10:57 PM 11.5°F-11.4°C 6.3°F-14.3°C 83% Calm Calm -- 30.67 in1038.6 mb 0.00 in0.0 mm 0.00 in0.0 mm 0.00 in0.0 mm
10:59 PM 11.5°F-11.4°C 6.3°F-14.3°C 83% Calm Calm -- 30.67 in1038.6 mb 0.00 in0.0 mm 0.00 in0.0 mm 0.00 in0.0 mm
11:01 PM 11.4°F-11.4°C 6.2°F-14.3°C 83% Calm Calm -- 30.67 in1038.6 mb 0.00 in0.0 mm 0.00 in0.0 mm 0.00 in0.0 mm
11:03 PM 11.4°F-11.4°C 6.2°F-14.3°C 83% Calm Calm -- 30.67 in1038.6 mb 0.00 in0.0 mm 0.00 in0.0 mm 0.00 in0.0 mm
11:05 PM 11.3°F-11.5°C 6.1°F-14.4°C 83% Calm Calm -- 30.67 in1038.6 mb 0.00 in0.0 mm 0.00 in0.0 mm 0.00 in0.0 mm
11:07 PM 11.3°F-11.5°C 6.1°F-14.4°C 83% Calm Calm -- 30.67 in1038.6 mb 0.00 in0.0 mm 0.00 in0.0 mm 0.00 in0.0 mm
11:09 PM 11.2°F-11.6°C 5.7°F-14.6°C 82% Calm Calm -- 30.67 in1038.6 mb 0.00 in0.0 mm 0.00 in0.0 mm 0.00 in0.0 mm
11:11 PM 11.1°F-11.6°C 5.6°F-14.7°C 82% Calm Calm -- 30.67 in1038.6 mb 0.00 in0.0 mm 0.00 in0.0 mm 0.00 in0.0 mm
11:13 PM 11.1°F-11.6°C 5.6°F-14.7°C 82% Calm Calm -- 30.67 in1038.6 mb 0.00 in0.0 mm 0.00 in0.0 mm 0.00 in0.0 mm
11:15 PM 11.0°F-11.7°C 5.8°F-14.6°C 83% Calm Calm -- 30.67 in1038.6 mb 0.00 in0.0 mm 0.00 in0.0 mm 0.00 in0.0 mm
11:17 PM 10.9°F-11.7°C 5.7°F-14.6°C 83% Calm Calm -- 30.67 in1038.6 mb 0.00 in0.0 mm 0.00 in0.0 mm 0.00 in0.0 mm
11:19 PM 10.7°F-11.8°C 5.5°F-14.7°C 83% Calm Calm -- 30.67 in1038.6 mb 0.00 in0.0 mm 0.00 in0.0 mm 0.00 in0.0 mm
11:21 PM 10.6°F-11.9°C 5.1°F-14.9°C 82% 1.0 mph N1.6 kmh N 2.0 mph3.2 kmh 30.68 in1038.9 mb 0.00 in0.0 mm 0.00 in0.0 mm 0.00 in0.0 mm
11:23 PM 10.5°F-11.9°C 5.0°F-15.0°C 82% Calm Calm -- 30.68 in1038.9 mb 0.00 in0.0 mm 0.00 in0.0 mm 0.00 in0.0 mm
11:25 PM 10.4°F-12.0°C 4.9°F-15.1°C 82% Calm Calm 1.0 mph1.6 kmh 30.68 in1038.9 mb 0.00 in0.0 mm 0.00 in0.0 mm 0.00 in0.0 mm
11:27 PM 10.3°F-12.1°C 4.8°F-15.1°C 82% Calm Calm 1.0 mph1.6 kmh 30.68 in1038.9 mb 0.00 in0.0 mm 0.00 in0.0 mm 0.00 in0.0 mm
11:29 PM 10.2°F-12.1°C 4.7°F-15.2°C 82% Calm Calm -- 30.68 in1038.9 mb 0.00 in0.0 mm 0.00 in0.0 mm 0.00 in0.0 mm
11:31 PM 10.0°F-12.2°C 4.5°F-15.3°C 82% 1.0 mph N1.6 kmh N 1.0 mph1.6 kmh 30.68 in1038.9 mb 0.00 in0.0 mm 0.00 in0.0 mm 0.00 in0.0 mm
11:33 PM 9.9°F-12.3°C 4.4°F-15.3°C 82% 1.0 mph N1.6 kmh N 1.0 mph1.6 kmh 30.67 in1038.6 mb 0.00 in0.0 mm 0.00 in0.0 mm 0.00 in0.0 mm
11:35 PM 9.8°F-12.3°C 4.3°F-15.4°C 82% 1.0 mph N1.6 kmh N 2.0 mph3.2 kmh 30.68 in1038.9 mb 0.00 in0.0 mm 0.00 in0.0 mm 0.00 in0.0 mm
11:37 PM 9.7°F-12.4°C 4.2°F-15.4°C 82% Calm Calm 2.0 mph3.2 kmh 30.67 in1038.6 mb 0.00 in0.0 mm 0.00 in0.0 mm 0.00 in0.0 mm
11:39 PM 9.6°F-12.4°C 4.1°F-15.5°C 82% Calm Calm -- 30.67 in1038.6 mb 0.00 in0.0 mm 0.00 in0.0 mm 0.00 in0.0 mm
11:41 PM 9.5°F-12.5°C 4.0°F-15.6°C 82% 1.0 mph N1.6 kmh N 1.0 mph1.6 kmh 30.67 in1038.6 mb 0.00 in0.0 mm 0.00 in0.0 mm 0.00 in0.0 mm
11:43 PM 9.4°F-12.6°C 4.0°F-15.6°C 82% Calm Calm -- 30.67 in1038.6 mb 0.00 in0.0 mm 0.00 in0.0 mm 0.00 in0.0 mm
11:45 PM 9.3°F-12.6°C 3.9°F-15.6°C 82% Calm Calm -- 30.67 in1038.6 mb 0.00 in0.0 mm 0.00 in0.0 mm 0.00 in0.0 mm
11:47 PM 9.2°F-12.7°C 3.8°F-15.7°C 82% Calm Calm 1.0 mph1.6 kmh 30.67 in1038.6 mb 0.00 in0.0 mm 0.00 in0.0 mm 0.00 in0.0 mm
11:49 PM 9.2°F-12.7°C 3.8°F-15.7°C 82% Calm Calm 1.0 mph1.6 kmh 30.67 in1038.6 mb 0.00 in0.0 mm 0.00 in0.0 mm 0.00 in0.0 mm
11:51 PM 9.1°F-12.7°C 3.7°F-15.7°C 82% Calm Calm 1.0 mph1.6 kmh 30.68 in1038.9 mb 0.00 in0.0 mm 0.00 in0.0 mm 0.00 in0.0 mm
11:53 PM 9.1°F-12.7°C 3.7°F-15.7°C 82% Calm Calm 1.0 mph1.6 kmh 30.68 in1038.9 mb 0.00 in0.0 mm 0.00 in0.0 mm 0.00 in0.0 mm
11:55 PM 9.0°F-12.8°C 3.6°F-15.8°C 82% 1.0 mph N1.6 kmh N 1.0 mph1.6 kmh 30.68 in1038.9 mb 0.00 in0.0 mm 0.00 in0.0 mm 0.00 in0.0 mm
11:57 PM 9.0°F-12.8°C 3.6°F-15.8°C 82% Calm Calm 1.0 mph1.6 kmh 30.68 in1038.9 mb 0.00 in0.0 mm 0.00 in0.0 mm 0.00 in0.0 mm
11:59 PM 8.9°F-12.8°C 3.5°F-15.8°C 82% Calm Calm -- 30.68 in1038.9 mb 0.00 in0.0 mm 0.00 in0.0 mm 0.00 in0.0 mm